Time,TemperatureF,DewpointF,PressureIn,WindDirection,WindDirectionDegrees,WindSpeedMPH,WindSpeedGustMPH,Humidity,HourlyPrecipIn,Conditions,Clouds,dailyrainin,SoftwareType,DateUTC
2013-02-20 09:40:00,31.2,12.8,29.80,WNW,299,5.4,5.4,46,0.20,,,0.00,VWS V14.01,2013-02-20 14:40:00,
2013-02-20 09:41:00,31.4,12.5,29.80,SSW,203,5.8,10.1,45,0.00,,,0.00,VWS V14.01,2013-02-20 14:41:00,
2013-02-20 09:42:00,31.6,12.7,29.80,NW,304,2.7,5.8,45,0.00,,,0.00,VWS V14.01,2013-02-20 14:42:00,
2013-02-20 09:43:00,31.7,12.8,29.80,North,0,5.4,5.4,45,0.00,,,0.00,VWS V14.01,2013-02-20 14:43:00,
2013-02-20 09:44:00,32.1,13.2,29.80,North,350,3.6,5.4,45,0.00,,,0.00,VWS V14.01,2013-02-20 14:44:00,
2013-02-20 09:45:00,32.1,13.2,29.80,WNW,288,5.4,5.8,45,0.00,,,0.00,VWS V14.01,2013-02-20 14:45:00,
2013-02-20 09:46:00,32.5,13.5,29.80,NNW,335,6.3,11.0,45,0.00,,,0.00,VWS V14.01,2013-02-20 14:46:00,
2013-02-20 09:47:00,32.5,13.5,29.80,NNW,335,6.3,11.0,45,0.00,,,0.00,VWS V14.01,2013-02-20 14:47:00,
2013-02-20 09:48:00,32.6,13.1,29.80,WSW,242,6.3,7.6,44,0.00,,,0.00,VWS V14.01,2013-02-20 14:48:00,
2013-02-20 09:49:00,32.8,13.3,29.80,SW,216,5.8,9.6,44,0.00,,,0.00,VWS V14.01,2013-02-20 14:49:00,
2013-02-20 09:50:00,33.0,13.5,29.80,WNW,287,8.3,8.3,44,0.00,,,0.00,VWS V14.01,2013-02-20 14:50:00,
2013-02-20 09:51:00,33.2,13.6,29.80,NW,306,3.6,8.3,44,0.00,,,0.00,VWS V14.01,2013-02-20 14:51:00,
2013-02-20 09:52:00,33.4,13.8,29.80,North,353,6.3,11.9,44,0.00,,,0.00,VWS V14.01,2013-02-20 14:52:00,
2013-02-20 09:53:00,33.4,12.8,29.80,NW,313,9.6,11.9,42,0.00,,,0.00,VWS V14.01,2013-02-20 14:53:00,
2013-02-20 09:54:00,33.4,12.2,29.80,NW,324,4.5,9.6,41,0.00,,,0.00,VWS V14.01,2013-02-20 14:54:00,
2013-02-20 09:55:00,33.5,12.4,29.80,East,99,7.6,7.6,41,0.00,,,0.00,VWS V14.01,2013-02-20 14:55:00,
2013-02-20 09:56:00,33.5,11.8,29.80,West,264,4.0,8.7,40,0.00,,,0.00,VWS V14.01,2013-02-20 14:56:00,
2013-02-20 09:57:00,33.5,11.8,29.80,NNW,343,3.6,3.6,40,0.00,,,0.00,VWS V14.01,2013-02-20 14:57:00,
2013-02-20 09:58:00,33.5,11.8,29.80,NNW,340,8.7,8.7,40,0.00,,,0.00,VWS V14.01,2013-02-20 14:58:00,
2013-02-20 09:59:00,33.4,11.6,29.80,West,262,3.1,8.7,40,0.00,,,0.00,VWS V14.01,2013-02-20 14:59:00,
2013-02-20 10:00:00,33.4,11.6,29.80,SW,217,3.6,12.8,40,0.00,,,0.00,VWS V14.01,2013-02-20 15:00:00,
2013-02-20 10:01:00,33.4,11.1,29.80,West,280,3.1,6.3,39,0.00,,,0.00,VWS V14.01,2013-02-20 15:01:00,
2013-02-20 10:02:00,33.4,11.1,29.80,West,262,5.4,6.7,39,0.00,,,0.00,VWS V14.01,2013-02-20 15:02:00,
2013-02-20 10:03:00,33.2,10.3,29.80,West,279,6.3,8.7,38,0.00,,,0.00,VWS V14.01,2013-02-20 15:03:00,
2013-02-20 10:04:00,33.2,10.3,29.80,NW,312,7.6,10.5,38,0.00,,,0.00,VWS V14.01,2013-02-20 15:04:00,
2013-02-20 10:05:00,33.2,10.3,29.80,WNW,301,11.0,11.0,38,0.00,,,0.00,VWS V14.01,2013-02-20 15:05:00,
2013-02-20 10:06:00,33.2,9.7,29.80,North,0,14.1,14.1,37,0.00,,,0.00,VWS V14.01,2013-02-20 15:06:00,
2013-02-20 10:07:00,32.8,9.4,29.80,NW,308,2.7,2.7,37,0.00,,,0.00,VWS V14.01,2013-02-20 15:07:00,
2013-02-20 10:08:00,32.8,9.4,29.80,West,276,2.7,7.6,37,0.00,,,0.00,VWS V14.01,2013-02-20 15:08:00,
2013-02-20 10:09:00,32.8,9.4,29.80,WNW,299,3.6,3.6,37,0.00,,,0.00,VWS V14.01,2013-02-20 15:09:00,
2013-02-20 10:10:00,32.8,9.4,29.80,WNW,288,5.8,8.3,37,0.00,,,0.00,VWS V14.01,2013-02-20 15:10:00,
2013-02-20 10:11:00,33.0,9.6,29.80,NNW,344,6.3,6.3,37,0.00,,,0.00,VWS V14.01,2013-02-20 15:11:00,
2013-02-20 10:12:00,33.2,9.8,29.80,WNW,299,5.8,8.7,37,0.00,,,0.00,VWS V14.01,2013-02-20 15:12:00,
2013-02-20 10:13:00,33.2,9.1,29.80,NW,312,10.1,10.1,36,0.00,,,0.00,VWS V14.01,2013-02-20 15:13:00,
2013-02-20 10:14:00,33.2,9.1,29.80,NW,305,8.7,12.3,36,0.00,,,0.00,VWS V14.01,2013-02-20 15:14:00,
2013-02-20 10:15:00,33.4,9.3,29.80,West,264,5.8,8.7,36,0.00,,,0.00,VWS V14.01,2013-02-20 15:15:00,
2013-02-20 10:16:00,33.5,9.5,29.80,WNW,288,4.9,9.6,36,0.00,,,0.00,VWS V14.01,2013-02-20 15:16:00,
2013-02-20 10:17:00,33.5,9.5,29.80,WNW,292,0.0,3.6,36,0.00,,,0.00,VWS V14.01,2013-02-20 15:17:00,
2013-02-20 10:18:00,33.7,9.6,29.80,NNW,331,4.0,4.0,36,0.00,,,0.00,VWS V14.01,2013-02-20 15:18:00,
2013-02-20 10:19:00,33.7,9.6,29.80,NW,313,5.4,8.7,36,0.00,,,0.00,VWS V14.01,2013-02-20 15:19:00,
2013-02-20 10:20:00,33.9,9.8,29.80,WNW,294,7.6,8.1,36,0.00,,,0.00,VWS V14.01,2013-02-20 15:20:00,
2013-02-20 10:21:00,33.9,9.8,29.80,NW,319,5.4,14.5,36,0.00,,,0.00,VWS V14.01,2013-02-20 15:21:00,
2013-02-20 10:22:00,33.9,9.8,29.80,NNW,327,6.3,8.1,36,0.00,,,0.00,VWS V14.01,2013-02-20 15:22:00,
2013-02-20 10:23:00,33.9,9.1,29.80,North,0,11.0,11.0,35,0.00,,,0.00,VWS V14.01,2013-02-20 15:23:00,
2013-02-20 10:24:00,33.9,9.1,29.80,West,264,9.6,11.0,35,0.00,,,0.00,VWS V14.01,2013-02-20 15:24:00,
2013-02-20 10:25:00,33.7,9.0,29.80,WNW,300,4.9,10.1,35,0.00,,,0.00,VWS V14.01,2013-02-20 15:25:00,
2013-02-20 10:26:00,33.7,9.0,29.80,NW,321,8.7,8.7,35,0.00,,,0.00,VWS V14.01,2013-02-20 15:26:00,
2013-02-20 10:27:00,33.7,9.0,29.80,WNW,302,10.1,10.1,35,0.00,,,0.00,VWS V14.01,2013-02-20 15:27:00,
2013-02-20 10:28:00,33.7,9.0,29.80,SW,218,8.1,10.1,35,0.00,,,0.00,VWS V14.01,2013-02-20 15:28:00,
2013-02-20 10:29:00,33.5,8.8,29.80,NW,314,11.0,15.0,35,0.00,,,0.00,VWS V14.01,2013-02-20 15:29:00,
2013-02-20 10:30:00,33.5,8.8,29.80,WNW,289,8.3,15.0,35,0.00,,,0.00,VWS V14.01,2013-02-20 15:30:00,
2013-02-20 10:31:00,33.5,8.8,29.80,West,260,5.8,8.3,35,0.00,,,0.00,VWS V14.01,2013-02-20 15:31:00,
2013-02-20 10:32:00,33.5,8.8,29.80,North,357,8.7,8.7,35,0.00,,,0.00,VWS V14.01,2013-02-20 15:32:00,
2013-02-20 10:33:00,33.5,8.8,29.80,NW,326,15.0,15.0,35,0.00,,,0.00,VWS V14.01,2013-02-20 15:33:00,
2013-02-20 10:34:00,33.5,8.8,29.80,NW,305,6.3,15.0,35,0.00,,,0.00,VWS V14.01,2013-02-20 15:34:00,
2013-02-20 10:35:00,33.5,8.8,29.80,NW,320,8.1,8.1,35,0.00,,,0.00,VWS V14.01,2013-02-20 15:35:00,
2013-02-20 10:36:00,33.4,8.7,29.80,North,350,8.1,16.8,35,0.00,,,0.00,VWS V14.01,2013-02-20 15:36:00,
2013-02-20 10:37:00,33.4,8.7,29.80,ENE,61,8.7,8.7,35,0.00,,,0.00,VWS V14.01,2013-02-20 15:37:00,
2013-02-20 10:38:00,33.4,8.7,29.80,ENE,70,5.4,8.7,35,0.00,,,0.00,VWS V14.01,2013-02-20 15:38:00,
2013-02-20 10:39:00,33.2,8.5,29.80,NW,307,6.3,15.9,35,0.00,,,0.00,VWS V14.01,2013-02-20 15:39:00,
2013-02-20 10:40:00,33.4,8.7,29.80,NW,324,8.1,8.7,35,0.00,,,0.00,VWS V14.01,2013-02-20 15:40:00,
2013-02-20 10:41:00,33.4,8.7,29.80,West,263,8.1,8.3,35,0.00,,,0.00,VWS V14.01,2013-02-20 15:41:00,
2013-02-20 10:42:00,33.5,8.8,29.80,West,274,8.1,8.1,35,0.00,,,0.00,VWS V14.01,2013-02-20 15:42:00,
2013-02-20 10:43:00,33.5,8.8,29.80,WSW,257,3.6,8.1,35,0.00,,,0.00,VWS V14.01,2013-02-20 15:43:00,
2013-02-20 10:44:00,33.5,8.8,29.80,WNW,289,7.6,7.6,35,0.00,,,0.00,VWS V14.01,2013-02-20 15:44:00,
2013-02-20 10:45:00,33.7,9.0,29.80,WSW,250,5.4,7.6,35,0.00,,,0.00,VWS V14.01,2013-02-20 15:45:00,
2013-02-20 10:46:00,34.1,9.3,29.80,ENE,68,7.6,7.6,35,0.00,,,0.00,VWS V14.01,2013-02-20 15:46:00,
2013-02-20 10:47:00,34.3,9.5,29.80,WNW,299,8.7,8.7,35,0.00,,,0.00,VWS V14.01,2013-02-20 15:47:00,
2013-02-20 10:48:00,34.3,9.5,29.80,West,263,5.8,8.7,35,0.00,,,0.00,VWS V14.01,2013-02-20 15:48:00,
2013-02-20 10:49:00,34.4,9.6,29.80,WSW,254,5.4,5.8,35,0.00,,,0.00,VWS V14.01,2013-02-20 15:49:00,
2013-02-20 10:50:00,34.8,9.9,29.80,North,2,3.6,11.4,35,0.00,,,0.00,VWS V14.01,2013-02-20 15:50:00,
2013-02-20 10:51:00,34.8,9.9,29.80,North,3,3.6,8.3,35,0.00,,,0.00,VWS V14.01,2013-02-20 15:51:00,
2013-02-20 10:52:00,34.8,9.9,29.80,NW,315,8.3,12.8,35,0.00,,,0.00,VWS V14.01,2013-02-20 15:52:00,
2013-02-20 10:53:00,34.8,9.9,29.80,WNW,292,8.3,12.8,35,0.00,,,0.00,VWS V14.01,2013-02-20 15:53:00,
2013-02-20 10:54:00,34.8,9.9,29.80,WSW,252,8.3,8.3,35,0.00,,,0.00,VWS V14.01,2013-02-20 15:54:00,
2013-02-20 10:55:00,34.6,9.8,29.80,West,266,3.6,8.3,35,0.00,,,0.00,VWS V14.01,2013-02-20 15:55:00,
2013-02-20 10:56:00,34.6,9.8,29.80,NNW,334,3.6,5.8,35,0.00,,,0.00,VWS V14.01,2013-02-20 15:56:00,
2013-02-20 10:57:00,34.6,9.8,29.80,NNW,346,5.8,7.6,35,0.00,,,0.00,VWS V14.01,2013-02-20 15:57:00,
2013-02-20 10:58:00,34.6,9.8,29.80,North,0,10.5,10.5,35,0.00,,,0.00,VWS V14.01,2013-02-20 15:58:00,
2013-02-20 10:59:00,34.6,9.8,29.80,NNW,338,8.7,10.5,35,0.00,,,0.00,VWS V14.01,2013-02-20 15:59:00,
2013-02-20 11:00:00,34.4,9.6,29.80,NW,318,5.8,10.1,35,0.00,,,0.00,VWS V14.01,2013-02-20 16:00:00,
2013-02-20 11:01:00,34.4,9.6,29.80,NW,304,7.6,8.7,35,0.00,,,0.00,VWS V14.01,2013-02-20 16:01:00,
2013-02-20 11:02:00,34.3,9.5,29.80,WSW,255,3.1,11.0,35,0.00,,,0.00,VWS V14.01,2013-02-20 16:02:00,
2013-02-20 11:03:00,34.3,9.5,29.80,NNW,330,6.3,8.1,35,0.00,,,0.00,VWS V14.01,2013-02-20 16:03:00,
2013-02-20 11:04:00,34.3,9.5,29.80,North,353,5.8,8.7,35,0.00,,,0.00,VWS V14.01,2013-02-20 16:04:00,
2013-02-20 11:05:00,34.1,9.3,29.80,NE,35,5.8,8.3,35,0.00,,,0.00,VWS V14.01,2013-02-20 16:05:00,
2013-02-20 11:06:00,34.3,9.5,29.80,West,261,12.3,12.3,35,0.00,,,0.00,VWS V14.01,2013-02-20 16:06:00,
2013-02-20 11:07:00,34.3,9.5,29.80,SW,221,6.7,12.3,35,0.00,,,0.00,VWS V14.01,2013-02-20 16:07:00,
2013-02-20 11:08:00,34.3,9.5,29.80,WNW,293,8.3,8.3,35,0.00,,,0.00,VWS V14.01,2013-02-20 16:08:00,
2013-02-20 11:09:00,34.4,9.6,29.80,WNW,296,3.1,8.3,35,0.00,,,0.00,VWS V14.01,2013-02-20 16:09:00,
2013-02-20 11:10:00,34.4,9.6,29.80,WSW,249,6.7,8.1,35,0.00,,,0.00,VWS V14.01,2013-02-20 16:10:00,
2013-02-20 11:11:00,34.6,9.8,29.80,NW,313,5.8,6.7,35,0.00,,,0.00,VWS V14.01,2013-02-20 16:11:00,
2013-02-20 11:12:00,34.8,9.3,29.80,NW,316,14.5,14.5,34,0.00,,,0.00,VWS V14.01,2013-02-20 16:12:00,
2013-02-20 11:13:00,34.8,9.3,29.80,WSW,244,8.1,14.5,34,0.00,,,0.00,VWS V14.01,2013-02-20 16:13:00,
2013-02-20 11:14:00,35.0,9.5,29.80,NNW,332,4.0,11.0,34,0.00,,,0.00,VWS V14.01,2013-02-20 16:14:00,
2013-02-20 11:15:00,35.0,9.5,29.80,NW,315,6.7,10.1,34,0.00,,,0.00,VWS V14.01,2013-02-20 16:15:00,
2013-02-20 11:16:00,35.0,9.5,29.80,NNW,331,8.7,12.3,34,0.00,,,0.00,VWS V14.01,2013-02-20 16:16:00,
2013-02-20 11:17:00,35.0,9.5,29.80,NW,317,7.6,11.0,34,0.00,,,0.00,VWS V14.01,2013-02-20 16:17:00,
2013-02-20 11:18:00,34.8,9.3,29.80,NNW,337,8.3,8.3,34,0.00,,,0.00,VWS V14.01,2013-02-20 16:18:00,
2013-02-20 11:19:00,34.8,9.3,29.80,SW,222,6.3,8.3,34,0.00,,,0.00,VWS V14.01,2013-02-20 16:19:00,
2013-02-20 11:20:00,34.8,9.3,29.80,NW,313,10.1,12.8,34,0.00,,,0.00,VWS V14.01,2013-02-20 16:20:00,
2013-02-20 11:21:00,35.0,9.5,29.80,NW,322,5.4,10.1,34,0.00,,,0.00,VWS V14.01,2013-02-20 16:21:00,
2013-02-20 11:22:00,35.0,9.5,29.80,WNW,293,5.4,11.0,34,0.00,,,0.00,VWS V14.01,2013-02-20 16:22:00,
2013-02-20 11:23:00,35.0,9.5,29.80,SSW,200,6.3,8.1,34,0.00,,,0.00,VWS V14.01,2013-02-20 16:23:00,
2013-02-20 11:24:00,35.2,9.6,29.80,NW,325,3.1,8.3,34,0.00,,,0.00,VWS V14.01,2013-02-20 16:24:00,
2013-02-20 11:25:00,35.2,9.6,29.80,WNW,293,5.8,5.8,34,0.00,,,0.00,VWS V14.01,2013-02-20 16:25:00,
2013-02-20 11:26:00,35.3,9.8,29.80,West,268,5.8,9.2,34,0.00,,,0.00,VWS V14.01,2013-02-20 16:26:00,
2013-02-20 11:27:00,35.3,9.8,29.80,West,277,5.4,10.5,34,0.00,,,0.00,VWS V14.01,2013-02-20 16:27:00,
2013-02-20 11:28:00,35.3,9.8,29.80,North,4,12.3,12.3,34,0.00,,,0.00,VWS V14.01,2013-02-20 16:28:00,
2013-02-20 11:29:00,35.3,9.8,29.80,WNW,288,8.7,12.3,34,0.00,,,0.00,VWS V14.01,2013-02-20 16:29:00,
2013-02-20 11:30:00,35.0,9.5,29.80,NNW,343,7.6,11.0,34,0.00,,,0.00,VWS V14.01,2013-02-20 16:30:00,
2013-02-20 11:31:00,35.0,9.5,29.80,WNW,294,7.6,7.6,34,0.00,,,0.00,VWS V14.01,2013-02-20 16:31:00,
2013-02-20 11:32:00,34.8,9.3,29.80,ESE,111,7.6,8.7,34,0.00,,,0.00,VWS V14.01,2013-02-20 16:32:00,
2013-02-20 11:33:00,34.8,9.3,29.80,NNW,338,5.8,8.3,34,0.00,,,0.00,VWS V14.01,2013-02-20 16:33:00,
2013-02-20 11:34:00,34.8,9.3,29.80,WNW,302,6.3,7.6,34,0.00,,,0.00,VWS V14.01,2013-02-20 16:34:00,
2013-02-20 11:35:00,34.8,9.3,29.80,SW,233,4.0,8.3,34,0.00,,,0.00,VWS V14.01,2013-02-20 16:35:00,
2013-02-20 11:36:00,34.8,9.3,29.80,NW,305,6.3,6.3,34,0.00,,,0.00,VWS V14.01,2013-02-20 16:36:00,
2013-02-20 11:37:00,35.0,9.5,29.80,WSW,254,4.5,11.0,34,0.00,,,0.00,VWS V14.01,2013-02-20 16:37:00,
2013-02-20 11:38:00,35.0,9.5,29.80,SW,216,9.2,10.5,34,0.00,,,0.00,VWS V14.01,2013-02-20 16:38:00,
2013-02-20 11:39:00,35.0,9.5,29.80,West,279,7.6,13.2,34,0.00,,,0.00,VWS V14.01,2013-02-20 16:39:00,
2013-02-20 11:40:00,35.0,9.5,29.80,SW,236,5.8,9.6,34,0.00,,,0.00,VWS V14.01,2013-02-20 16:40:00,
2013-02-20 11:41:00,35.0,9.5,29.80,WNW,295,6.3,6.3,34,0.00,,,0.00,VWS V14.01,2013-02-20 16:41:00,
2013-02-20 11:42:00,35.0,9.5,29.80,WSW,254,8.3,10.1,34,0.00,,,0.00,VWS V14.01,2013-02-20 16:42:00,
2013-02-20 11:43:00,35.0,9.5,29.80,North,2,4.0,4.0,34,0.00,,,0.00,VWS V14.01,2013-02-20 16:43:00,
2013-02-20 11:44:00,35.0,9.5,29.80,WNW,292,8.1,8.1,34,0.00,,,0.00,VWS V14.01,2013-02-20 16:44:00,
2013-02-20 11:45:00,35.0,9.5,29.80,WNW,298,9.6,9.6,34,0.00,,,0.00,VWS V14.01,2013-02-20 16:45:00,
2013-02-20 11:46:00,35.0,9.5,29.80,WNW,293,4.0,9.6,34,0.00,,,0.00,VWS V14.01,2013-02-20 16:46:00,
2013-02-20 11:47:00,35.0,9.5,29.80,NW,323,3.6,4.0,34,0.00,,,0.00,VWS V14.01,2013-02-20 16:47:00,
2013-02-20 11:48:00,35.0,9.5,29.80,NW,305,4.0,7.6,34,0.00,,,0.00,VWS V14.01,2013-02-20 16:48:00,
2013-02-20 11:49:00,35.0,9.5,29.80,NNW,346,8.7,8.7,34,0.00,,,0.00,VWS V14.01,2013-02-20 16:49:00,
2013-02-20 11:50:00,35.0,9.5,29.80,NW,319,8.1,10.1,34,0.00,,,0.00,VWS V14.01,2013-02-20 16:50:00,
2013-02-20 11:51:00,35.0,9.5,29.80,NW,305,5.8,8.1,34,0.00,,,0.00,VWS V14.01,2013-02-20 16:51:00,
2013-02-20 11:52:00,34.8,9.3,29.80,NW,324,8.7,12.3,34,0.00,,,0.00,VWS V14.01,2013-02-20 16:52:00,
2013-02-20 11:53:00,34.8,9.3,29.80,NW,313,10.5,10.5,34,0.00,,,0.00,VWS V14.01,2013-02-20 16:53:00,
2013-02-20 11:54:00,34.8,9.3,29.80,NW,317,8.3,10.5,34,0.00,,,0.00,VWS V14.01,2013-02-20 16:54:00,
2013-02-20 11:55:00,34.6,9.1,29.80,West,274,5.8,8.3,34,0.00,,,0.00,VWS V14.01,2013-02-20 16:55:00,
2013-02-20 11:56:00,34.6,9.1,29.80,North,353,8.3,10.5,34,0.00,,,0.00,VWS V14.01,2013-02-20 16:56:00,
2013-02-20 11:57:00,34.8,9.3,29.80,NW,316,5.8,10.1,34,0.00,,,0.00,VWS V14.01,2013-02-20 16:57:00,
2013-02-20 11:58:00,34.8,9.3,29.80,NNW,336,7.6,7.6,34,0.00,,,0.00,VWS V14.01,2013-02-20 16:58:00,
2013-02-20 11:59:00,34.8,9.3,29.80,NNW,343,5.8,12.8,34,0.00,,,0.00,VWS V14.01,2013-02-20 16:59:00,
2013-02-20 12:00:00,34.8,9.3,29.80,WNW,294,7.6,7.6,34,0.00,,,0.00,VWS V14.01,2013-02-20 17:00:00,
2013-02-20 12:01:00,34.8,9.3,29.80,WNW,303,6.3,7.6,34,0.00,,,0.00,VWS V14.01,2013-02-20 17:01:00,
2013-02-20 12:02:00,34.8,9.3,29.80,West,280,6.3,8.7,34,0.00,,,0.00,VWS V14.01,2013-02-20 17:02:00,
2013-02-20 12:03:00,34.8,9.3,29.80,NW,311,7.6,9.6,34,0.00,,,0.00,VWS V14.01,2013-02-20 17:03:00,
2013-02-20 12:04:00,34.8,9.3,29.80,NNW,335,8.3,9.6,34,0.00,,,0.00,VWS V14.01,2013-02-20 17:04:00,
2013-02-20 12:05:00,34.8,9.3,29.80,West,259,8.7,13.2,34,0.00,,,0.00,VWS V14.01,2013-02-20 17:05:00,
2013-02-20 12:06:00,34.6,9.1,29.80,NW,310,5.4,8.7,34,0.00,,,0.00,VWS V14.01,2013-02-20 17:06:00,
2013-02-20 12:07:00,34.6,9.1,29.80,West,275,4.0,5.4,34,0.00,,,0.00,VWS V14.01,2013-02-20 17:07:00,
2013-02-20 12:08:00,34.6,9.1,29.80,SSW,196,8.1,8.1,34,0.00,,,0.00,VWS V14.01,2013-02-20 17:08:00,
2013-02-20 12:09:00,34.6,9.1,29.80,WSW,245,6.3,8.1,34,0.00,,,0.00,VWS V14.01,2013-02-20 17:09:00,
2013-02-20 12:10:00,34.8,9.3,29.80,NW,321,8.1,8.1,34,0.00,,,0.00,VWS V14.01,2013-02-20 17:10:00,
2013-02-20 12:11:00,34.8,9.3,29.80,WNW,300,6.3,8.1,34,0.00,,,0.00,VWS V14.01,2013-02-20 17:11:00,
2013-02-20 12:12:00,35.0,9.5,29.80,WNW,297,5.8,7.6,34,0.00,,,0.00,VWS V14.01,2013-02-20 17:12:00,
2013-02-20 12:13:00,35.0,9.5,29.80,NNW,342,4.0,6.3,34,0.00,,,0.00,VWS V14.01,2013-02-20 17:13:00,
2013-02-20 12:14:00,35.2,9.6,29.80,NW,304,3.1,6.3,34,0.00,,,0.00,VWS V14.01,2013-02-20 17:14:00,
2013-02-20 12:15:00,35.2,9.6,29.80,NW,304,3.1,3.1,34,0.00,,,0.00,VWS V14.01,2013-02-20 17:15:00,
2013-02-20 12:16:00,35.2,9.6,29.80,SW,231,8.1,8.1,34,0.00,,,0.00,VWS V14.01,2013-02-20 17:16:00,
2013-02-20 12:17:00,35.2,9.6,29.80,NNW,327,10.5,13.2,34,0.00,,,0.00,VWS V14.01,2013-02-20 17:17:00,
2013-02-20 12:18:00,35.2,9.6,29.80,NW,325,7.6,7.6,34,0.00,,,0.00,VWS V14.01,2013-02-20 17:18:00,
2013-02-20 12:19:00,35.2,9.6,29.80,SSW,200,3.6,7.6,34,0.00,,,0.00,VWS V14.01,2013-02-20 17:19:00,
2013-02-20 12:20:00,35.2,9.6,29.80,SSW,204,4.5,5.8,34,0.00,,,0.00,VWS V14.01,2013-02-20 17:20:00,
2013-02-20 12:21:00,35.0,9.5,29.80,WNW,302,6.3,6.3,34,0.00,,,0.00,VWS V14.01,2013-02-20 17:21:00,
2013-02-20 12:22:00,35.0,9.5,29.80,SW,229,7.2,7.2,34,0.00,,,0.00,VWS V14.01,2013-02-20 17:22:00,
2013-02-20 12:23:00,35.0,9.5,29.80,WSW,253,5.4,5.4,34,0.00,,,0.00,VWS V14.01,2013-02-20 17:23:00,
2013-02-20 12:24:00,35.0,9.5,29.80,WSW,238,7.2,7.2,34,0.00,,,0.00,VWS V14.01,2013-02-20 17:24:00,
2013-02-20 12:25:00,35.0,9.5,29.80,North,0,8.1,8.1,34,0.00,,,0.00,VWS V14.01,2013-02-20 17:25:00,
2013-02-20 12:26:00,35.0,9.5,29.80,WNW,297,10.5,10.5,34,0.00,,,0.00,VWS V14.01,2013-02-20 17:26:00,
2013-02-20 12:27:00,35.0,9.5,29.80,NW,320,5.4,10.5,34,0.00,,,0.00,VWS V14.01,2013-02-20 17:27:00,
2013-02-20 12:28:00,35.0,9.5,29.80,SSW,197,6.3,6.3,34,0.00,,,0.00,VWS V14.01,2013-02-20 17:28:00,
2013-02-20 12:29:00,35.0,9.5,29.80,WSW,239,3.6,6.3,34,0.00,,,0.00,VWS V14.01,2013-02-20 17:29:00,
2013-02-20 12:30:00,35.0,9.5,29.80,NNW,330,3.6,5.8,34,0.00,,,0.00,VWS V14.01,2013-02-20 17:30:00,
2013-02-20 12:31:00,35.2,9.6,29.80,NNW,330,3.6,3.6,34,0.00,,,0.00,VWS V14.01,2013-02-20 17:31:00,
2013-02-20 12:32:00,35.3,9.8,29.80,West,274,3.6,3.6,34,0.00,,,0.00,VWS V14.01,2013-02-20 17:32:00,
2013-02-20 12:33:00,35.5,9.9,29.80,WSW,242,8.1,8.1,34,0.00,,,0.00,VWS V14.01,2013-02-20 17:33:00,
2013-02-20 12:34:00,35.5,9.9,29.80,NW,324,8.1,8.1,34,0.00,,,0.00,VWS V14.01,2013-02-20 17:34:00,
2013-02-20 12:35:00,35.5,9.9,29.80,NW,310,8.7,8.7,34,0.00,,,0.00,VWS V14.01,2013-02-20 17:35:00,
2013-02-20 12:36:00,35.5,9.9,29.77,NNW,334,10.5,10.5,34,0.00,,,0.00,VWS V14.01,2013-02-20 17:36:00,
2013-02-20 12:37:00,35.5,9.9,29.77,WNW,285,5.4,10.5,34,0.00,,,0.00,VWS V14.01,2013-02-20 17:37:00,
2013-02-20 12:38:00,35.5,9.9,29.77,West,271,5.4,5.4,34,0.00,,,0.00,VWS V14.01,2013-02-20 17:38:00,
2013-02-20 12:39:00,35.5,9.9,29.77,NNE,17,11.0,11.0,34,0.00,,,0.00,VWS V14.01,2013-02-20 17:39:00,
2013-02-20 12:40:00,35.5,9.9,29.77,NW,315,11.0,11.0,34,0.00,,,0.00,VWS V14.01,2013-02-20 17:40:00,
2013-02-20 12:41:00,35.5,9.9,29.77,WNW,282,8.7,11.0,34,0.00,,,0.00,VWS V14.01,2013-02-20 17:41:00,
2013-02-20 12:42:00,35.5,7.9,29.77,West,262,15.9,15.9,31,0.00,,,0.00,VWS V14.01,2013-02-20 17:42:00,
2013-02-20 12:43:00,35.3,9.8,29.77,NW,323,8.1,8.1,34,0.00,,,0.00,VWS V14.01,2013-02-20 17:43:00,
2013-02-20 12:44:00,35.3,9.8,29.77,WNW,283,8.1,8.1,34,0.00,,,0.00,VWS V14.01,2013-02-20 17:44:00,
2013-02-20 12:45:00,35.3,9.8,29.77,North,0,8.1,8.7,34,0.00,,,0.00,VWS V14.01,2013-02-20 17:45:00,
2013-02-20 12:46:00,35.3,9.8,29.77,WNW,302,7.2,10.5,34,0.00,,,0.00,VWS V14.01,2013-02-20 17:46:00,
2013-02-20 12:47:00,35.3,9.8,29.77,WNW,293,6.3,10.1,34,0.00,,,0.00,VWS V14.01,2013-02-20 17:47:00,
2013-02-20 12:48:00,35.3,9.8,29.77,WNW,288,6.3,8.7,34,0.00,,,0.00,VWS V14.01,2013-02-20 17:48:00,
2013-02-20 12:49:00,35.5,9.9,29.77,WNW,294,5.4,8.7,34,0.00,,,0.00,VWS V14.01,2013-02-20 17:49:00,
2013-02-20 12:50:00,35.5,9.9,29.77,NW,308,8.7,13.6,34,0.00,,,0.00,VWS V14.01,2013-02-20 17:50:00,
2013-02-20 12:51:00,35.3,9.8,29.77,North,1,6.3,8.7,34,0.00,,,0.00,VWS V14.01,2013-02-20 17:51:00,
2013-02-20 12:52:00,35.3,7.7,29.77,NNW,348,7.6,10.1,31,0.00,,,0.00,VWS V14.01,2013-02-20 17:52:00,
2013-02-20 12:53:00,35.2,9.6,29.77,West,267,6.3,6.3,34,0.00,,,0.00,VWS V14.01,2013-02-20 17:53:00,
2013-02-20 12:54:00,35.0,9.5,29.77,South,169,7.2,7.2,34,0.00,,,0.00,VWS V14.01,2013-02-20 17:54:00,
2013-02-20 12:55:00,35.0,9.5,29.77,NW,321,2.7,7.2,34,0.00,,,0.00,VWS V14.01,2013-02-20 17:55:00,
2013-02-20 12:56:00,35.0,9.5,29.77,NW,315,8.3,8.3,34,0.00,,,0.00,VWS V14.01,2013-02-20 17:56:00,
2013-02-20 12:57:00,34.8,9.3,29.77,NW,324,8.3,8.3,34,0.00,,,0.00,VWS V14.01,2013-02-20 17:57:00,
2013-02-20 12:58:00,34.8,9.3,29.77,WNW,291,5.8,5.8,34,0.00,,,0.00,VWS V14.01,2013-02-20 17:58:00,
2013-02-20 12:59:00,34.8,9.3,29.77,West,277,4.0,5.8,34,0.00,,,0.00,VWS V14.01,2013-02-20 17:59:00,
2013-02-20 13:00:00,34.8,9.3,29.77,SE,127,8.7,8.7,34,0.00,,,0.00,VWS V14.01,2013-02-20 18:00:00,
2013-02-20 13:01:00,34.8,9.3,29.77,WNW,293,4.9,8.7,34,0.00,,,0.00,VWS V14.01,2013-02-20 18:01:00,
2013-02-20 13:02:00,35.0,9.5,29.77,NW,318,4.0,5.4,34,0.00,,,0.00,VWS V14.01,2013-02-20 18:02:00,
2013-02-20 13:03:00,35.0,9.5,29.77,NW,318,2.7,4.9,34,0.00,,,0.00,VWS V14.01,2013-02-20 18:03:00,
2013-02-20 13:04:00,35.0,9.5,29.77,NW,316,7.2,7.2,34,0.00,,,0.00,VWS V14.01,2013-02-20 18:04:00,
2013-02-20 13:05:00,35.0,9.5,29.77,North,353,6.3,8.3,34,0.00,,,0.00,VWS V14.01,2013-02-20 18:05:00,
2013-02-20 13:06:00,35.0,9.5,29.77,West,259,8.3,8.3,34,0.00,,,0.00,VWS V14.01,2013-02-20 18:06:00,
2013-02-20 13:07:00,35.0,9.5,29.77,NW,313,5.8,8.3,34,0.00,,,0.00,VWS V14.01,2013-02-20 18:07:00,
2013-02-20 13:08:00,35.0,9.5,29.77,NNW,348,5.4,8.1,34,0.00,,,0.00,VWS V14.01,2013-02-20 18:08:00,
2013-02-20 13:09:00,35.0,9.5,29.77,North,357,7.2,8.1,34,0.00,,,0.00,VWS V14.01,2013-02-20 18:09:00,
2013-02-20 13:10:00,35.0,9.5,29.77,North,353,5.8,7.2,34,0.00,,,0.00,VWS V14.01,2013-02-20 18:10:00,
2013-02-20 13:11:00,35.0,7.4,29.77,NNW,345,10.1,10.5,31,0.00,,,0.00,VWS V14.01,2013-02-20 18:11:00,
2013-02-20 13:12:00,34.8,7.3,29.77,NW,316,4.0,10.1,31,0.00,,,0.00,VWS V14.01,2013-02-20 18:12:00,
2013-02-20 13:13:00,34.8,7.3,29.77,NNW,348,6.3,8.1,31,0.00,,,0.00,VWS V14.01,2013-02-20 18:13:00,
2013-02-20 13:14:00,34.6,7.8,29.77,NNW,336,11.0,11.0,32,0.00,,,0.00,VWS V14.01,2013-02-20 18:14:00,
2013-02-20 13:15:00,34.4,7.6,29.77,WNW,290,7.2,12.3,32,0.00,,,0.00,VWS V14.01,2013-02-20 18:15:00,
2013-02-20 13:16:00,34.3,7.5,29.77,West,259,10.1,13.2,32,0.00,,,0.00,VWS V14.01,2013-02-20 18:16:00,
2013-02-20 13:17:00,34.3,7.5,29.77,WNW,292,8.3,10.1,32,0.00,,,0.00,VWS V14.01,2013-02-20 18:17:00,
2013-02-20 13:18:00,34.3,7.5,29.77,NW,318,8.3,8.3,32,0.00,,,0.00,VWS V14.01,2013-02-20 18:18:00,
2013-02-20 13:19:00,34.1,7.3,29.77,NW,310,5.8,17.4,32,0.00,,,0.00,VWS V14.01,2013-02-20 18:19:00,
2013-02-20 13:20:00,34.1,7.3,29.77,SW,216,8.7,8.7,32,0.00,,,0.00,VWS V14.01,2013-02-20 18:20:00,
2013-02-20 13:21:00,34.1,7.3,29.77,NW,308,5.8,8.7,32,0.00,,,0.00,VWS V14.01,2013-02-20 18:21:00,
2013-02-20 13:22:00,34.1,7.3,29.77,WNW,299,8.1,9.2,32,0.00,,,0.00,VWS V14.01,2013-02-20 18:22:00,
2013-02-20 13:23:00,34.3,8.8,29.77,West,260,7.2,8.3,34,0.00,,,0.00,VWS V14.01,2013-02-20 18:23:00,
2013-02-20 13:24:00,34.3,7.5,29.77,NE,36,6.3,7.2,32,0.00,,,0.00,VWS V14.01,2013-02-20 18:24:00,
2013-02-20 13:25:00,34.4,7.6,29.77,WNW,298,11.0,11.0,32,0.00,,,0.00,VWS V14.01,2013-02-20 18:25:00,
2013-02-20 13:26:00,34.6,7.8,29.77,SW,231,12.8,12.8,32,0.00,,,0.00,VWS V14.01,2013-02-20 18:26:00,
2013-02-20 13:27:00,34.8,7.3,29.77,NW,315,10.5,12.8,31,0.00,,,0.00,VWS V14.01,2013-02-20 18:27:00,
2013-02-20 13:28:00,34.8,7.3,29.77,NW,318,6.3,10.5,31,0.00,,,0.00,VWS V14.01,2013-02-20 18:28:00,
2013-02-20 13:29:00,35.0,7.4,29.77,WNW,300,10.5,12.3,31,0.00,,,0.00,VWS V14.01,2013-02-20 18:29:00,
2013-02-20 13:30:00,35.0,7.4,29.77,SW,219,7.2,10.5,31,0.00,,,0.00,VWS V14.01,2013-02-20 18:30:00,
2013-02-20 13:31:00,35.2,9.6,29.77,WSW,246,3.6,8.1,34,0.00,,,0.00,VWS V14.01,2013-02-20 18:31:00,
2013-02-20 13:32:00,35.3,7.7,29.77,NW,306,5.4,10.5,31,0.00,,,0.00,VWS V14.01,2013-02-20 18:32:00,
2013-02-20 13:33:00,35.3,7.7,29.77,NW,313,5.4,5.8,31,0.00,,,0.00,VWS V14.01,2013-02-20 18:33:00,
2013-02-20 13:34:00,35.5,7.9,29.77,West,270,8.3,10.5,31,0.00,,,0.00,VWS V14.01,2013-02-20 18:34:00,
2013-02-20 13:35:00,35.5,7.9,29.77,West,277,5.4,11.0,31,0.00,,,0.00,VWS V14.01,2013-02-20 18:35:00,
2013-02-20 13:36:00,35.3,7.7,29.77,West,276,4.0,8.3,31,0.00,,,0.00,VWS V14.01,2013-02-20 18:36:00,
2013-02-20 13:37:00,35.3,7.7,29.77,NW,314,4.0,12.8,31,0.00,,,0.00,VWS V14.01,2013-02-20 18:37:00,
2013-02-20 13:38:00,35.3,7.7,29.77,SSW,204,6.3,8.3,31,0.00,,,0.00,VWS V14.01,2013-02-20 18:38:00,
2013-02-20 13:39:00,35.2,7.6,29.77,WNW,299,11.0,11.0,31,0.00,,,0.00,VWS V14.01,2013-02-20 18:39:00,
2013-02-20 13:40:00,35.0,7.4,29.77,WNW,282,5.4,11.0,31,0.00,,,0.00,VWS V14.01,2013-02-20 18:40:00,
2013-02-20 13:41:00,35.0,7.4,29.77,ENE,64,8.1,8.1,31,0.00,,,0.00,VWS V14.01,2013-02-20 18:41:00,
2013-02-20 13:42:00,35.0,7.4,29.77,WSW,258,4.0,8.1,31,0.00,,,0.00,VWS V14.01,2013-02-20 18:42:00,
2013-02-20 13:43:00,35.0,7.4,29.77,SSE,168,5.8,8.7,31,0.00,,,0.00,VWS V14.01,2013-02-20 18:43:00,
2013-02-20 13:44:00,35.0,7.4,29.77,North,7,5.4,8.3,31,0.00,,,0.00,VWS V14.01,2013-02-20 18:44:00,
2013-02-20 13:45:00,35.0,7.4,29.77,WSW,238,5.4,8.3,31,0.00,,,0.00,VWS V14.01,2013-02-20 18:45:00,
2013-02-20 13:46:00,35.0,7.4,29.77,WSW,238,5.4,12.8,31,0.00,,,0.00,VWS V14.01,2013-02-20 18:46:00,
2013-02-20 13:47:00,35.2,7.6,29.77,WSW,246,8.1,8.7,31,0.00,,,0.00,VWS V14.01,2013-02-20 18:47:00,
2013-02-20 13:48:00,35.2,7.6,29.77,WSW,256,7.6,8.1,31,0.00,,,0.00,VWS V14.01,2013-02-20 18:48:00,
2013-02-20 13:49:00,35.2,7.6,29.77,SW,228,6.3,6.3,31,0.00,,,0.00,VWS V14.01,2013-02-20 18:49:00,
2013-02-20 13:50:00,35.2,7.6,29.77,WNW,297,6.3,6.3,31,0.00,,,0.00,VWS V14.01,2013-02-20 18:50:00,
2013-02-20 13:51:00,35.2,7.6,29.77,West,278,8.1,10.5,31,0.00,,,0.00,VWS V14.01,2013-02-20 18:51:00,
2013-02-20 13:52:00,35.2,7.6,29.77,WSW,256,5.4,8.1,31,0.00,,,0.00,VWS V14.01,2013-02-20 18:52:00,
2013-02-20 13:53:00,35.0,7.4,29.77,NNW,331,5.8,5.8,31,0.00,,,0.00,VWS V14.01,2013-02-20 18:53:00,
2013-02-20 13:54:00,35.0,7.4,29.77,NW,304,3.1,6.7,31,0.00,,,0.00,VWS V14.01,2013-02-20 18:54:00,
2013-02-20 13:55:00,35.0,7.4,29.77,WNW,290,5.8,8.7,31,0.00,,,0.00,VWS V14.01,2013-02-20 18:55:00,
2013-02-20 13:56:00,35.0,7.4,29.77,NW,326,5.8,8.1,31,0.00,,,0.00,VWS V14.01,2013-02-20 18:56:00,
2013-02-20 13:57:00,35.0,7.4,29.77,WSW,252,4.0,7.6,31,0.00,,,0.00,VWS V14.01,2013-02-20 18:57:00,
2013-02-20 13:58:00,35.0,7.4,29.77,NNW,341,5.4,5.4,31,0.00,,,0.00,VWS V14.01,2013-02-20 18:58:00,
2013-02-20 13:59:00,35.2,7.6,29.77,West,263,5.4,6.3,31,0.00,,,0.00,VWS V14.01,2013-02-20 18:59:00,
2013-02-20 14:00:00,35.2,7.6,29.77,NW,316,5.8,6.3,31,0.00,,,0.00,VWS V14.01,2013-02-20 19:00:00,
2013-02-20 14:01:00,35.2,7.6,29.77,NW,316,11.4,11.4,31,0.00,,,0.00,VWS V14.01,2013-02-20 19:01:00,
2013-02-20 14:02:00,35.2,7.6,29.77,WNW,292,8.1,17.0,31,0.00,,,0.00,VWS V14.01,2013-02-20 19:02:00,
2013-02-20 14:03:00,35.2,7.6,29.77,West,281,5.8,8.3,31,0.00,,,0.00,VWS V14.01,2013-02-20 19:03:00,
2013-02-20 14:04:00,35.3,7.7,29.77,NW,319,8.7,10.5,31,0.00,,,0.00,VWS V14.01,2013-02-20 19:04:00,
2013-02-20 14:05:00,35.3,7.7,29.77,WSW,252,10.1,12.8,31,0.00,,,0.00,VWS V14.01,2013-02-20 19:05:00,
2013-02-20 14:06:00,35.3,7.7,29.77,WNW,303,9.6,10.5,31,0.00,,,0.00,VWS V14.01,2013-02-20 19:06:00,
2013-02-20 14:07:00,35.5,7.9,29.77,SW,217,6.3,9.6,31,0.00,,,0.00,VWS V14.01,2013-02-20 19:07:00,
2013-02-20 14:08:00,35.5,7.9,29.77,WSW,247,8.1,10.5,31,0.00,,,0.00,VWS V14.01,2013-02-20 19:08:00,
2013-02-20 14:09:00,35.7,8.1,29.77,NNW,333,5.8,6.3,31,0.00,,,0.00,VWS V14.01,2013-02-20 19:09:00,
2013-02-20 14:10:00,35.7,8.1,29.77,NNW,329,5.4,11.0,31,0.00,,,0.00,VWS V14.01,2013-02-20 19:10:00,
2013-02-20 14:11:00,35.7,8.1,29.77,NW,309,5.8,10.1,31,0.00,,,0.00,VWS V14.01,2013-02-20 19:11:00,
2013-02-20 14:12:00,35.7,8.1,29.77,WNW,288,8.7,11.9,31,0.00,,,0.00,VWS V14.01,2013-02-20 19:12:00,
2013-02-20 14:13:00,35.7,8.1,29.77,WNW,284,4.0,9.6,31,0.00,,,0.00,VWS V14.01,2013-02-20 19:13:00,
2013-02-20 14:14:00,35.5,7.9,29.77,West,266,7.6,8.7,31,0.00,,,0.00,VWS V14.01,2013-02-20 19:14:00,
2013-02-20 14:15:00,35.3,7.7,29.77,NW,317,6.3,8.7,31,0.00,,,0.00,VWS V14.01,2013-02-20 19:15:00,
2013-02-20 14:16:00,35.2,7.6,29.77,NW,307,8.3,11.0,31,0.00,,,0.00,VWS V14.01,2013-02-20 19:16:00,
2013-02-20 14:17:00,35.0,7.4,29.77,WNW,297,11.0,15.4,31,0.00,,,0.00,VWS V14.01,2013-02-20 19:17:00,
2013-02-20 14:18:00,35.0,7.4,29.77,NW,319,6.3,11.0,31,0.00,,,0.00,VWS V14.01,2013-02-20 19:18:00,
2013-02-20 14:19:00,34.8,7.3,29.77,NW,304,6.3,8.1,31,0.00,,,0.00,VWS V14.01,2013-02-20 19:19:00,
2013-02-20 14:20:00,34.8,7.3,29.77,North,349,5.8,8.1,31,0.00,,,0.00,VWS V14.01,2013-02-20 19:20:00,
2013-02-20 14:21:00,34.8,7.3,29.77,NW,316,10.5,11.0,31,0.00,,,0.00,VWS V14.01,2013-02-20 19:21:00,
2013-02-20 14:22:00,34.6,7.8,29.77,WNW,298,5.8,15.4,32,0.00,,,0.00,VWS V14.01,2013-02-20 19:22:00,
2013-02-20 14:23:00,34.6,7.8,29.77,SSW,205,4.9,8.1,32,0.00,,,0.00,VWS V14.01,2013-02-20 19:23:00,
2013-02-20 14:24:00,34.6,7.8,29.77,WNW,290,8.3,9.6,32,0.00,,,0.00,VWS V14.01,2013-02-20 19:24:00,
2013-02-20 14:25:00,34.6,7.8,29.77,WSW,251,7.6,9.6,32,0.00,,,0.00,VWS V14.01,2013-02-20 19:25:00,
2013-02-20 14:26:00,34.6,7.8,29.77,NNW,330,8.3,9.6,32,0.00,,,0.00,VWS V14.01,2013-02-20 19:26:00,
2013-02-20 14:27:00,34.4,7.6,29.77,NW,319,6.3,9.2,32,0.00,,,0.00,VWS V14.01,2013-02-20 19:27:00,
2013-02-20 14:28:00,34.4,7.6,29.77,NNW,330,8.3,8.3,32,0.00,,,0.00,VWS V14.01,2013-02-20 19:28:00,
2013-02-20 14:29:00,34.3,7.5,29.77,NW,306,8.1,8.7,32,0.00,,,0.00,VWS V14.01,2013-02-20 19:29:00,
2013-02-20 14:30:00,34.1,7.3,29.77,WNW,299,10.1,10.1,32,0.00,,,0.00,VWS V14.01,2013-02-20 19:30:00,
2013-02-20 14:31:00,34.1,7.3,29.77,West,281,10.1,10.5,32,0.00,,,0.00,VWS V14.01,2013-02-20 19:31:00,
2013-02-20 14:32:00,33.9,7.2,29.77,NW,307,7.6,10.1,32,0.00,,,0.00,VWS V14.01,2013-02-20 19:32:00,
2013-02-20 14:33:00,33.7,7.0,29.77,NW,314,6.3,8.7,32,0.00,,,0.00,VWS V14.01,2013-02-20 19:33:00,
2013-02-20 14:34:00,33.5,6.8,29.77,NW,322,12.8,12.8,32,0.00,,,0.00,VWS V14.01,2013-02-20 19:34:00,
2013-02-20 14:35:00,33.5,6.8,29.77,NNW,344,12.3,12.8,32,0.00,,,0.00,VWS V14.01,2013-02-20 19:35:00,
2013-02-20 14:36:00,33.5,6.8,29.80,WNW,299,5.8,12.3,32,0.00,,,0.00,VWS V14.01,2013-02-20 19:36:00,
2013-02-20 14:37:00,33.4,6.7,29.80,West,270,12.3,12.3,32,0.00,,,0.00,VWS V14.01,2013-02-20 19:37:00,
2013-02-20 14:38:00,33.4,6.7,29.80,NW,311,7.6,12.3,32,0.00,,,0.00,VWS V14.01,2013-02-20 19:38:00,
2013-02-20 14:39:00,33.4,6.7,29.80,NW,310,11.0,11.4,32,0.00,,,0.00,VWS V14.01,2013-02-20 19:39:00,
2013-02-20 14:40:00,33.2,6.5,29.80,WNW,294,8.3,11.4,32,0.00,,,0.00,VWS V14.01,2013-02-20 19:40:00,
2013-02-20 14:41:00,33.2,6.5,29.80,WNW,285,4.9,8.3,32,0.00,,,0.00,VWS V14.01,2013-02-20 19:41:00,
2013-02-20 14:42:00,33.2,6.5,29.80,NNW,348,5.4,5.8,32,0.00,,,0.00,VWS V14.01,2013-02-20 19:42:00,
2013-02-20 14:43:00,33.2,6.5,29.80,NW,308,8.1,8.1,32,0.00,,,0.00,VWS V14.01,2013-02-20 19:43:00,
2013-02-20 14:44:00,33.2,6.5,29.80,NNW,341,8.1,8.7,32,0.00,,,0.00,VWS V14.01,2013-02-20 19:44:00,
2013-02-20 14:45:00,33.2,6.5,29.80,NNW,329,15.0,15.0,32,0.00,,,0.00,VWS V14.01,2013-02-20 19:45:00,
2013-02-20 14:46:00,33.2,6.5,29.80,West,267,6.7,15.0,32,0.00,,,0.00,VWS V14.01,2013-02-20 19:46:00,
2013-02-20 14:47:00,33.2,6.5,29.80,WNW,291,8.3,12.8,32,0.00,,,0.00,VWS V14.01,2013-02-20 19:47:00,
2013-02-20 14:48:00,33.2,6.5,29.80,WNW,286,4.0,10.5,32,0.00,,,0.00,VWS V14.01,2013-02-20 19:48:00,
2013-02-20 14:49:00,33.2,6.5,29.80,WNW,290,8.3,11.0,32,0.00,,,0.00,VWS V14.01,2013-02-20 19:49:00,
2013-02-20 14:50:00,33.2,6.5,29.80,NW,318,5.4,11.0,32,0.00,,,0.00,VWS V14.01,2013-02-20 19:50:00,
2013-02-20 14:51:00,33.2,6.5,29.80,WNW,300,7.6,11.0,32,0.00,,,0.00,VWS V14.01,2013-02-20 19:51:00,
2013-02-20 14:52:00,33.0,6.4,29.80,WNW,285,8.1,12.8,32,0.00,,,0.00,VWS V14.01,2013-02-20 19:52:00,
2013-02-20 14:53:00,33.0,6.4,29.80,West,271,5.4,8.3,32,0.00,,,0.00,VWS V14.01,2013-02-20 19:53:00,
2013-02-20 14:54:00,32.8,6.2,29.80,NNW,331,7.6,12.3,32,0.00,,,0.00,VWS V14.01,2013-02-20 19:54:00,
2013-02-20 14:55:00,32.8,6.2,29.80,NW,319,2.7,15.0,32,0.00,,,0.00,VWS V14.01,2013-02-20 19:55:00,
2013-02-20 14:56:00,32.8,6.2,29.80,WNW,300,11.0,11.0,32,0.00,,,0.00,VWS V14.01,2013-02-20 19:56:00,
2013-02-20 14:57:00,32.6,6.1,29.80,NW,308,8.7,12.8,32,0.00,,,0.00,VWS V14.01,2013-02-20 19:57:00,
2013-02-20 14:58:00,32.6,6.1,29.80,North,353,8.1,11.0,32,0.00,,,0.00,VWS V14.01,2013-02-20 19:58:00,
2013-02-20 14:59:00,32.5,5.9,29.80,WSW,252,5.8,8.7,32,0.00,,,0.00,VWS V14.01,2013-02-20 19:59:00,
2013-02-20 15:00:00,32.5,5.9,29.80,NW,310,10.5,10.5,32,0.00,,,0.00,VWS V14.01,2013-02-20 20:00:00,
2013-02-20 15:01:00,32.5,5.9,29.80,West,267,10.1,10.5,32,0.00,,,0.00,VWS V14.01,2013-02-20 20:01:00,
2013-02-20 15:02:00,32.5,5.9,29.80,WNW,287,8.1,10.5,32,0.00,,,0.00,VWS V14.01,2013-02-20 20:02:00,
2013-02-20 15:03:00,32.5,5.9,29.80,NW,319,17.9,17.9,32,0.00,,,0.00,VWS V14.01,2013-02-20 20:03:00,
2013-02-20 15:04:00,32.5,5.9,29.80,NNE,18,11.4,17.9,32,0.00,,,0.00,VWS V14.01,2013-02-20 20:04:00,
2013-02-20 15:05:00,32.3,5.7,29.80,WNW,295,6.3,11.4,32,0.00,,,0.00,VWS V14.01,2013-02-20 20:05:00,
2013-02-20 15:06:00,32.3,5.7,29.80,North,5,3.6,8.7,32,0.00,,,0.00,VWS V14.01,2013-02-20 20:06:00,
2013-02-20 15:07:00,32.3,5.7,29.80,NW,321,8.7,8.7,32,0.00,,,0.00,VWS V14.01,2013-02-20 20:07:00,
2013-02-20 15:08:00,32.3,5.7,29.80,NNW,328,7.6,12.3,32,0.00,,,0.00,VWS V14.01,2013-02-20 20:08:00,
2013-02-20 15:09:00,32.3,5.7,29.80,SW,216,8.1,11.0,32,0.00,,,0.00,VWS V14.01,2013-02-20 20:09:00,
2013-02-20 15:10:00,32.3,5.7,29.80,NW,306,8.3,8.3,32,0.00,,,0.00,VWS V14.01,2013-02-20 20:10:00,
2013-02-20 15:11:00,32.5,5.9,29.80,West,269,7.6,8.3,32,0.00,,,0.00,VWS V14.01,2013-02-20 20:11:00,
2013-02-20 15:12:00,32.5,5.9,29.80,NNW,338,7.6,9.6,32,0.00,,,0.00,VWS V14.01,2013-02-20 20:12:00,
2013-02-20 15:13:00,32.5,5.9,29.80,WNW,298,7.2,8.3,32,0.00,,,0.00,VWS V14.01,2013-02-20 20:13:00,
2013-02-20 15:14:00,32.5,5.9,29.80,NNW,331,7.2,11.0,32,0.00,,,0.00,VWS V14.01,2013-02-20 20:14:00,
2013-02-20 15:15:00,32.5,5.9,29.80,WNW,299,8.3,8.3,32,0.00,,,0.00,VWS V14.01,2013-02-20 20:15:00,
2013-02-20 15:16:00,32.5,5.9,29.80,NW,306,5.4,8.3,32,0.00,,,0.00,VWS V14.01,2013-02-20 20:16:00,
2013-02-20 15:17:00,32.5,5.9,29.80,NW,325,7.6,11.0,32,0.00,,,0.00,VWS V14.01,2013-02-20 20:17:00,
2013-02-20 15:18:00,32.5,5.9,29.80,WNW,302,10.1,10.1,32,0.00,,,0.00,VWS V14.01,2013-02-20 20:18:00,
2013-02-20 15:19:00,32.5,5.9,29.80,NW,306,8.1,12.8,32,0.00,,,0.00,VWS V14.01,2013-02-20 20:19:00,
2013-02-20 15:20:00,32.5,5.9,29.80,West,271,7.6,14.5,32,0.00,,,0.00,VWS V14.01,2013-02-20 20:20:00,
2013-02-20 15:21:00,32.3,5.7,29.80,NNW,327,2.2,7.6,32,0.00,,,0.00,VWS V14.01,2013-02-20 20:21:00,
2013-02-20 15:22:00,32.3,5.7,29.80,NNW,339,8.7,10.5,32,0.00,,,0.00,VWS V14.01,2013-02-20 20:22:00,
2013-02-20 15:23:00,32.3,5.7,29.80,North,3,4.0,8.7,32,0.00,,,0.00,VWS V14.01,2013-02-20 20:23:00,
2013-02-20 15:24:00,32.3,5.7,29.80,NW,305,10.5,10.5,32,0.00,,,0.00,VWS V14.01,2013-02-20 20:24:00,
2013-02-20 15:25:00,32.3,5.7,29.80,NW,311,11.0,16.3,32,0.00,,,0.00,VWS V14.01,2013-02-20 20:25:00,
2013-02-20 15:26:00,32.1,5.6,29.80,NW,321,12.8,12.8,32,0.00,,,0.00,VWS V14.01,2013-02-20 20:26:00,
2013-02-20 15:27:00,32.1,5.6,29.80,WNW,303,8.3,12.8,32,0.00,,,0.00,VWS V14.01,2013-02-20 20:27:00,
2013-02-20 15:28:00,32.1,5.6,29.80,NE,35,8.7,8.7,32,0.00,,,0.00,VWS V14.01,2013-02-20 20:28:00,
2013-02-20 15:29:00,32.1,5.6,29.80,NNW,332,11.0,11.4,32,0.00,,,0.00,VWS V14.01,2013-02-20 20:29:00,
2013-02-20 15:30:00,31.9,5.4,29.80,West,281,10.5,11.0,32,0.00,,,0.00,VWS V14.01,2013-02-20 20:30:00,
2013-02-20 15:31:00,31.9,5.4,29.80,NNW,340,5.8,10.5,32,0.00,,,0.00,VWS V14.01,2013-02-20 20:31:00,
2013-02-20 15:32:00,31.9,5.4,29.80,NE,43,8.7,10.1,32,0.00,,,0.00,VWS V14.01,2013-02-20 20:32:00,
2013-02-20 15:33:00,31.7,5.3,29.80,North,353,11.0,11.0,32,0.00,,,0.00,VWS V14.01,2013-02-20 20:33:00,
2013-02-20 15:34:00,31.7,5.3,29.80,NW,311,11.0,19.7,32,0.00,,,0.00,VWS V14.01,2013-02-20 20:34:00,
2013-02-20 15:35:00,31.7,5.3,29.80,NW,319,8.7,8.7,32,0.00,,,0.00,VWS V14.01,2013-02-20 20:35:00,
2013-02-20 15:36:00,31.7,5.3,29.80,North,353,10.1,10.1,32,0.00,,,0.00,VWS V14.01,2013-02-20 20:36:00,
2013-02-20 15:37:00,31.7,5.3,29.80,NW,323,10.5,10.5,32,0.00,,,0.00,VWS V14.01,2013-02-20 20:37:00,
2013-02-20 15:38:00,31.6,5.1,29.80,WNW,301,4.0,17.9,32,0.00,,,0.00,VWS V14.01,2013-02-20 20:38:00,
2013-02-20 15:39:00,31.6,5.1,29.80,NW,326,9.2,9.2,32,0.00,,,0.00,VWS V14.01,2013-02-20 20:39:00,
2013-02-20 15:40:00,31.6,5.1,29.80,WSW,249,9.6,9.6,32,0.00,,,0.00,VWS V14.01,2013-02-20 20:40:00,
2013-02-20 15:41:00,31.6,5.1,29.80,West,273,8.3,10.5,32,0.00,,,0.00,VWS V14.01,2013-02-20 20:41:00,
2013-02-20 15:42:00,31.6,5.1,29.80,NNW,329,5.4,10.5,32,0.00,,,0.00,VWS V14.01,2013-02-20 20:42:00,
2013-02-20 15:43:00,31.6,5.1,29.80,NNW,330,6.3,10.5,32,0.00,,,0.00,VWS V14.01,2013-02-20 20:43:00,
2013-02-20 15:44:00,31.6,5.1,29.80,NNW,341,11.0,11.0,32,0.00,,,0.00,VWS V14.01,2013-02-20 20:44:00,
2013-02-20 15:45:00,31.6,5.1,29.80,NNW,341,10.5,10.5,32,0.00,,,0.00,VWS V14.01,2013-02-20 20:45:00,
2013-02-20 15:46:00,31.6,5.1,29.80,WNW,284,10.1,10.5,32,0.00,,,0.00,VWS V14.01,2013-02-20 20:46:00,
2013-02-20 15:47:00,31.6,5.1,29.80,NW,321,15.4,15.4,32,0.00,,,0.00,VWS V14.01,2013-02-20 20:47:00,
2013-02-20 15:48:00,31.7,5.3,29.80,NW,315,13.2,15.4,32,0.00,,,0.00,VWS V14.01,2013-02-20 20:48:00,
2013-02-20 15:49:00,31.7,5.3,29.80,NW,304,7.2,13.2,32,0.00,,,0.00,VWS V14.01,2013-02-20 20:49:00,
2013-02-20 15:50:00,31.9,5.4,29.80,WNW,292,6.3,6.3,32,0.00,,,0.00,VWS V14.01,2013-02-20 20:50:00,
2013-02-20 15:51:00,31.9,5.4,29.83,NW,322,13.6,13.6,32,0.00,,,0.00,VWS V14.01,2013-02-20 20:51:00,
2013-02-20 15:52:00,32.1,5.6,29.83,NNW,335,11.4,17.4,32,0.00,,,0.00,VWS V14.01,2013-02-20 20:52:00,
2013-02-20 15:53:00,32.1,5.6,29.83,NNW,340,15.0,15.0,32,0.00,,,0.00,VWS V14.01,2013-02-20 20:53:00,
2013-02-20 15:54:00,32.1,5.6,29.83,NNW,346,13.2,15.0,32,0.00,,,0.00,VWS V14.01,2013-02-20 20:54:00,
2013-02-20 15:55:00,32.1,5.6,29.83,NW,306,5.8,6.3,32,0.00,,,0.00,VWS V14.01,2013-02-20 20:55:00,
2013-02-20 15:56:00,32.1,5.6,29.83,WNW,297,7.6,10.1,32,0.00,,,0.00,VWS V14.01,2013-02-20 20:56:00,
2013-02-20 15:57:00,32.3,3.6,29.83,NW,320,15.4,15.4,29,0.00,,,0.00,VWS V14.01,2013-02-20 20:57:00,
2013-02-20 15:58:00,32.3,3.6,29.83,NW,305,15.0,15.4,29,0.00,,,0.00,VWS V14.01,2013-02-20 20:58:00,
2013-02-20 15:59:00,32.3,5.7,29.83,West,274,5.4,15.0,32,0.00,,,0.00,VWS V14.01,2013-02-20 20:59:00,
2013-02-20 16:00:00,32.3,5.7,29.83,WNW,289,5.8,8.3,32,0.00,,,0.00,VWS V14.01,2013-02-20 21:00:00,
2013-02-20 16:01:00,32.3,5.7,29.83,WSW,250,5.4,8.7,32,0.00,,,0.00,VWS V14.01,2013-02-20 21:01:00,
2013-02-20 16:02:00,32.3,5.7,29.83,WNW,286,5.8,10.5,32,0.00,,,0.00,VWS V14.01,2013-02-20 21:02:00,
2013-02-20 16:03:00,32.1,5.6,29.83,NW,304,5.4,10.1,32,0.00,,,0.00,VWS V14.01,2013-02-20 21:03:00,
2013-02-20 16:04:00,32.1,5.6,29.83,NW,304,5.8,8.3,32,0.00,,,0.00,VWS V14.01,2013-02-20 21:04:00,
2013-02-20 16:05:00,32.1,5.6,29.83,NW,308,6.3,10.5,32,0.00,,,0.00,VWS V14.01,2013-02-20 21:05:00,
2013-02-20 16:06:00,32.1,5.6,29.83,WNW,288,6.3,10.5,32,0.00,,,0.00,VWS V14.01,2013-02-20 21:06:00,
2013-02-20 16:07:00,32.1,5.6,29.83,NNE,27,5.4,6.3,32,0.00,,,0.00,VWS V14.01,2013-02-20 21:07:00,
2013-02-20 16:08:00,32.1,5.6,29.83,NW,321,5.4,8.7,32,0.00,,,0.00,VWS V14.01,2013-02-20 21:08:00,
2013-02-20 16:09:00,32.1,5.6,29.83,North,0,5.4,8.1,32,0.00,,,0.00,VWS V14.01,2013-02-20 21:09:00,
2013-02-20 16:10:00,31.9,5.4,29.83,West,279,3.6,10.1,32,0.00,,,0.00,VWS V14.01,2013-02-20 21:10:00,
2013-02-20 16:11:00,31.9,5.4,29.83,WSW,252,0.0,10.1,32,0.00,,,0.00,VWS V14.01,2013-02-20 21:11:00,
2013-02-20 16:12:00,31.9,5.4,29.83,West,262,5.4,5.8,32,0.00,,,0.00,VWS V14.01,2013-02-20 21:12:00,
2013-02-20 16:13:00,31.9,5.4,29.83,NNW,337,2.2,5.4,32,0.00,,,0.00,VWS V14.01,2013-02-20 21:13:00,
2013-02-20 16:14:00,31.9,5.4,29.83,West,270,3.6,7.6,32,0.00,,,0.00,VWS V14.01,2013-02-20 21:14:00,
2013-02-20 16:15:00,31.9,5.4,29.83,WNW,294,5.4,5.4,32,0.00,,,0.00,VWS V14.01,2013-02-20 21:15:00,
2013-02-20 16:16:00,31.9,5.4,29.83,West,275,4.0,5.4,32,0.00,,,0.00,VWS V14.01,2013-02-20 21:16:00,
2013-02-20 16:17:00,31.9,5.4,29.83,North,353,8.3,8.3,32,0.00,,,0.00,VWS V14.01,2013-02-20 21:17:00,
2013-02-20 16:18:00,31.9,5.4,29.83,WNW,290,8.1,10.5,32,0.00,,,0.00,VWS V14.01,2013-02-20 21:18:00,
2013-02-20 16:19:00,31.9,5.4,29.83,NW,322,7.6,8.1,32,0.00,,,0.00,VWS V14.01,2013-02-20 21:19:00,
2013-02-20 16:20:00,31.9,5.4,29.83,NNW,335,4.0,5.8,32,0.00,,,0.00,VWS V14.01,2013-02-20 21:20:00,
2013-02-20 16:21:00,31.9,5.4,29.83,North,350,6.3,10.5,32,0.00,,,0.00,VWS V14.01,2013-02-20 21:21:00,
2013-02-20 16:22:00,31.9,5.4,29.83,NNW,328,8.1,10.5,32,0.00,,,0.00,VWS V14.01,2013-02-20 21:22:00,
2013-02-20 16:23:00,31.9,5.4,29.83,NW,320,13.2,13.2,32,0.00,,,0.00,VWS V14.01,2013-02-20 21:23:00,
2013-02-20 16:24:00,31.9,5.4,29.83,NNW,336,4.9,13.2,32,0.00,,,0.00,VWS V14.01,2013-02-20 21:24:00,
2013-02-20 16:25:00,31.9,5.4,29.83,NW,317,5.4,5.4,32,0.00,,,0.00,VWS V14.01,2013-02-20 21:25:00,
2013-02-20 16:26:00,31.9,5.4,29.83,West,259,6.7,6.7,32,0.00,,,0.00,VWS V14.01,2013-02-20 21:26:00,
2013-02-20 16:27:00,31.9,5.4,29.83,NW,306,5.4,9.6,32,0.00,,,0.00,VWS V14.01,2013-02-20 21:27:00,
2013-02-20 16:28:00,31.9,5.4,29.83,WNW,287,12.3,12.3,32,0.00,,,0.00,VWS V14.01,2013-02-20 21:28:00,
2013-02-20 16:29:00,31.9,5.4,29.83,NNW,340,7.2,12.3,32,0.00,,,0.00,VWS V14.01,2013-02-20 21:29:00,
2013-02-20 16:30:00,31.9,5.4,29.83,WNW,296,8.3,8.3,32,0.00,,,0.00,VWS V14.01,2013-02-20 21:30:00,
2013-02-20 16:31:00,31.9,5.4,29.83,NNW,333,4.0,8.3,32,0.00,,,0.00,VWS V14.01,2013-02-20 21:31:00,
2013-02-20 16:32:00,31.9,5.4,29.83,WSW,243,5.4,5.4,32,0.00,,,0.00,VWS V14.01,2013-02-20 21:32:00,
2013-02-20 16:33:00,31.7,5.3,29.83,South,180,3.1,8.1,32,0.00,,,0.00,VWS V14.01,2013-02-20 21:33:00,
2013-02-20 16:34:00,31.7,5.3,29.83,North,8,10.1,12.8,32,0.00,,,0.00,VWS V14.01,2013-02-20 21:34:00,
2013-02-20 16:35:00,31.7,5.3,29.83,North,4,5.4,10.5,32,0.00,,,0.00,VWS V14.01,2013-02-20 21:35:00,
2013-02-20 16:36:00,31.6,5.1,29.83,West,276,6.3,10.5,32,0.00,,,0.00,VWS V14.01,2013-02-20 21:36:00,
2013-02-20 16:37:00,31.6,5.1,29.83,WNW,300,5.8,6.3,32,0.00,,,0.00,VWS V14.01,2013-02-20 21:37:00,
2013-02-20 16:38:00,31.4,4.9,29.83,NW,305,5.8,8.7,32,0.00,,,0.00,VWS V14.01,2013-02-20 21:38:00,
2013-02-20 16:39:00,31.4,4.9,29.83,NNW,327,10.1,10.5,32,0.00,,,0.00,VWS V14.01,2013-02-20 21:39:00,
2013-02-20 16:40:00,31.2,4.8,29.83,WNW,293,11.0,12.8,32,0.00,,,0.00,VWS V14.01,2013-02-20 21:40:00,
2013-02-20 16:41:00,31.2,4.8,29.83,WNW,293,11.0,12.8,32,0.00,,,0.00,VWS V14.01,2013-02-20 21:41:00,
2013-02-20 16:42:00,31.2,4.8,29.83,WNW,300,10.5,11.0,32,0.00,,,0.00,VWS V14.01,2013-02-20 21:42:00,
2013-02-20 16:43:00,31.2,4.8,29.83,WNW,300,10.5,10.5,32,0.00,,,0.00,VWS V14.01,2013-02-20 21:43:00,
2013-02-20 16:44:00,31.2,4.8,29.83,NW,310,12.3,12.3,32,0.00,,,0.00,VWS V14.01,2013-02-20 21:44:00,
2013-02-20 16:45:00,31.2,4.8,29.83,North,0,13.2,13.2,32,0.00,,,0.00,VWS V14.01,2013-02-20 21:45:00,
2013-02-20 16:46:00,31.2,4.8,29.83,NNE,31,8.7,13.2,32,0.00,,,0.00,VWS V14.01,2013-02-20 21:46:00,
2013-02-20 16:47:00,31.0,4.6,29.83,NW,317,6.3,8.7,32,0.00,,,0.00,VWS V14.01,2013-02-20 21:47:00,
2013-02-20 16:48:00,31.0,4.6,29.83,WNW,290,8.7,8.7,32,0.00,,,0.00,VWS V14.01,2013-02-20 21:48:00,
2013-02-20 16:49:00,31.0,4.6,29.83,NW,308,8.7,8.7,32,0.00,,,0.00,VWS V14.01,2013-02-20 21:49:00,
2013-02-20 16:50:00,31.0,4.6,29.83,NW,311,14.5,15.9,32,0.00,,,0.00,VWS V14.01,2013-02-20 21:50:00,
2013-02-20 16:51:00,31.0,4.6,29.83,NW,306,4.0,15.9,32,0.00,,,0.00,VWS V14.01,2013-02-20 21:51:00,
2013-02-20 16:52:00,31.0,4.6,29.83,NW,308,7.6,8.3,32,0.00,,,0.00,VWS V14.01,2013-02-20 21:52:00,
2013-02-20 16:53:00,31.0,4.6,29.83,NE,37,4.9,7.6,32,0.00,,,0.00,VWS V14.01,2013-02-20 21:53:00,
2013-02-20 16:54:00,31.0,4.6,29.83,West,263,5.8,6.3,32,0.00,,,0.00,VWS V14.01,2013-02-20 21:54:00,
2013-02-20 16:55:00,31.0,4.6,29.83,WNW,290,13.2,13.2,32,0.00,,,0.00,VWS V14.01,2013-02-20 21:55:00,
2013-02-20 16:56:00,31.0,4.6,29.83,NNW,344,6.7,13.2,32,0.00,,,0.00,VWS V14.01,2013-02-20 21:56:00,
2013-02-20 16:57:00,31.0,4.6,29.83,NNW,343,7.6,8.1,32,0.00,,,0.00,VWS V14.01,2013-02-20 21:57:00,
2013-02-20 16:58:00,31.0,4.6,29.83,NNE,19,6.3,7.6,32,0.00,,,0.00,VWS V14.01,2013-02-20 21:58:00,
2013-02-20 16:59:00,31.0,4.6,29.83,West,266,8.3,8.3,32,0.00,,,0.00,VWS V14.01,2013-02-20 21:59:00,
2013-02-20 17:00:00,30.8,4.5,29.83,WNW,282,6.3,7.6,32,0.00,,,0.00,VWS V14.01,2013-02-20 22:00:00,
2013-02-20 17:01:00,30.8,4.5,29.83,SW,220,4.5,7.6,32,0.00,,,0.00,VWS V14.01,2013-02-20 22:01:00,
2013-02-20 17:02:00,30.8,4.5,29.83,WNW,283,5.8,8.1,32,0.00,,,0.00,VWS V14.01,2013-02-20 22:02:00,
2013-02-20 17:03:00,30.7,4.3,29.83,SW,217,7.6,8.7,32,0.00,,,0.00,VWS V14.01,2013-02-20 22:03:00,
2013-02-20 17:04:00,30.7,4.3,29.83,West,267,4.9,8.3,32,0.00,,,0.00,VWS V14.01,2013-02-20 22:04:00,
2013-02-20 17:05:00,30.7,4.3,29.83,WNW,299,3.1,5.8,32,0.00,,,0.00,VWS V14.01,2013-02-20 22:05:00,
2013-02-20 17:06:00,30.7,4.3,29.83,WNW,282,8.1,8.1,32,0.00,,,0.00,VWS V14.01,2013-02-20 22:06:00,
2013-02-20 17:07:00,30.5,4.2,29.83,NNW,341,5.8,12.3,32,0.00,,,0.00,VWS V14.01,2013-02-20 22:07:00,
2013-02-20 17:08:00,30.5,4.2,29.83,NW,308,3.1,8.1,32,0.00,,,0.00,VWS V14.01,2013-02-20 22:08:00,
2013-02-20 17:09:00,30.5,4.2,29.83,WNW,302,5.4,7.6,32,0.00,,,0.00,VWS V14.01,2013-02-20 22:09:00,
2013-02-20 17:10:00,30.5,4.2,29.83,WNW,298,6.3,6.3,32,0.00,,,0.00,VWS V14.01,2013-02-20 22:10:00,
2013-02-20 17:11:00,30.5,4.2,29.83,NW,314,4.0,6.3,32,0.00,,,0.00,VWS V14.01,2013-02-20 22:11:00,
2013-02-20 17:12:00,30.5,4.2,29.83,WNW,297,5.4,6.3,32,0.00,,,0.00,VWS V14.01,2013-02-20 22:12:00,
2013-02-20 17:13:00,30.5,4.2,29.83,WNW,296,5.8,6.3,32,0.00,,,0.00,VWS V14.01,2013-02-20 22:13:00,
2013-02-20 17:14:00,30.3,4.0,29.83,WSW,250,6.7,9.6,32,0.00,,,0.00,VWS V14.01,2013-02-20 22:14:00,
2013-02-20 17:15:00,30.3,4.0,29.83,WSW,246,8.7,8.7,32,0.00,,,0.00,VWS V14.01,2013-02-20 22:15:00,
2013-02-20 17:16:00,30.3,4.0,29.83,WSW,250,5.8,8.7,32,0.00,,,0.00,VWS V14.01,2013-02-20 22:16:00,
2013-02-20 17:17:00,30.3,4.0,29.83,West,268,5.4,10.1,32,0.00,,,0.00,VWS V14.01,2013-02-20 22:17:00,
2013-02-20 17:18:00,30.3,4.0,29.83,NW,323,10.1,12.8,32,0.00,,,0.00,VWS V14.01,2013-02-20 22:18:00,
2013-02-20 17:19:00,30.3,4.0,29.83,West,266,8.1,10.1,32,0.00,,,0.00,VWS V14.01,2013-02-20 22:19:00,
2013-02-20 17:20:00,30.1,3.8,29.83,North,357,8.7,8.7,32,0.00,,,0.00,VWS V14.01,2013-02-20 22:20:00,
2013-02-20 17:21:00,30.1,3.8,29.83,NW,326,8.7,8.7,32,0.00,,,0.00,VWS V14.01,2013-02-20 22:21:00,
2013-02-20 17:22:00,30.1,3.8,29.83,WNW,301,5.8,7.6,32,0.00,,,0.00,VWS V14.01,2013-02-20 22:22:00,
2013-02-20 17:23:00,30.1,3.8,29.83,WSW,240,3.6,8.1,32,0.00,,,0.00,VWS V14.01,2013-02-20 22:23:00,
2013-02-20 17:24:00,30.1,3.8,29.83,WNW,286,5.8,8.7,32,0.00,,,0.00,VWS V14.01,2013-02-20 22:24:00,
2013-02-20 17:25:00,30.1,3.8,29.83,NNW,337,5.4,5.8,32,0.00,,,0.00,VWS V14.01,2013-02-20 22:25:00,
2013-02-20 17:26:00,30.1,3.8,29.83,WNW,289,4.0,8.3,32,0.00,,,0.00,VWS V14.01,2013-02-20 22:26:00,
2013-02-20 17:27:00,30.1,3.8,29.83,NW,318,6.7,6.7,32,0.00,,,0.00,VWS V14.01,2013-02-20 22:27:00,
2013-02-20 17:28:00,29.9,3.7,29.83,NW,305,9.6,9.6,32,0.00,,,0.00,VWS V14.01,2013-02-20 22:28:00,
2013-02-20 17:29:00,29.9,3.7,29.83,NW,319,6.3,9.6,32,0.00,,,0.00,VWS V14.01,2013-02-20 22:29:00,
2013-02-20 17:30:00,29.9,3.7,29.83,NNW,342,15.4,15.4,32,0.00,,,0.00,VWS V14.01,2013-02-20 22:30:00,
2013-02-20 17:31:00,29.9,3.7,29.83,North,353,13.2,15.4,32,0.00,,,0.00,VWS V14.01,2013-02-20 22:31:00,
2013-02-20 17:32:00,29.9,3.7,29.83,NNW,332,5.8,13.2,32,0.00,,,0.00,VWS V14.01,2013-02-20 22:32:00,
2013-02-20 17:33:00,29.9,3.7,29.83,WSW,245,14.5,14.5,32,0.00,,,0.00,VWS V14.01,2013-02-20 22:33:00,
2013-02-20 17:34:00,29.8,3.5,29.83,SW,220,5.4,14.5,32,0.00,,,0.00,VWS V14.01,2013-02-20 22:34:00,
2013-02-20 17:35:00,29.8,3.5,29.83,NW,324,8.1,8.3,32,0.00,,,0.00,VWS V14.01,2013-02-20 22:35:00,
2013-02-20 17:36:00,29.8,3.5,29.85,SSW,201,5.8,8.3,32,0.00,,,0.00,VWS V14.01,2013-02-20 22:36:00,
2013-02-20 17:37:00,29.8,3.5,29.85,NNW,331,2.7,4.9,32,0.00,,,0.00,VWS V14.01,2013-02-20 22:37:00,
2013-02-20 17:38:00,29.8,3.5,29.85,WNW,283,5.8,7.2,32,0.00,,,0.00,VWS V14.01,2013-02-20 22:38:00,
2013-02-20 17:39:00,29.8,3.5,29.85,NW,309,5.4,5.8,32,0.00,,,0.00,VWS V14.01,2013-02-20 22:39:00,
2013-02-20 17:40:00,29.8,3.5,29.85,West,271,5.8,6.3,32,0.00,,,0.00,VWS V14.01,2013-02-20 22:40:00,
2013-02-20 17:41:00,29.8,3.5,29.85,NW,305,4.0,5.8,32,0.00,,,0.00,VWS V14.01,2013-02-20 22:41:00,
2013-02-20 17:42:00,29.8,3.5,29.85,West,270,3.6,5.4,32,0.00,,,0.00,VWS V14.01,2013-02-20 22:42:00,
2013-02-20 17:43:00,29.6,3.4,29.85,North,353,5.8,5.8,32,0.00,,,0.00,VWS V14.01,2013-02-20 22:43:00,
2013-02-20 17:44:00,29.6,3.4,29.85,NW,326,12.8,12.8,32,0.00,,,0.00,VWS V14.01,2013-02-20 22:44:00,
2013-02-20 17:45:00,29.6,3.4,29.85,West,275,8.1,12.8,32,0.00,,,0.00,VWS V14.01,2013-02-20 22:45:00,
2013-02-20 17:46:00,29.6,3.4,29.85,WNW,287,3.6,8.1,32,0.00,,,0.00,VWS V14.01,2013-02-20 22:46:00,
2013-02-20 17:47:00,29.6,3.4,29.85,NW,313,8.3,8.3,32,0.00,,,0.00,VWS V14.01,2013-02-20 22:47:00,
2013-02-20 17:48:00,29.6,3.4,29.85,NW,319,3.6,8.3,32,0.00,,,0.00,VWS V14.01,2013-02-20 22:48:00,
2013-02-20 17:49:00,29.6,3.4,29.85,NW,309,5.4,6.3,32,0.00,,,0.00,VWS V14.01,2013-02-20 22:49:00,
2013-02-20 17:50:00,29.6,3.4,29.85,West,267,5.8,5.8,32,0.00,,,0.00,VWS V14.01,2013-02-20 22:50:00,
2013-02-20 17:51:00,29.6,3.4,29.85,NNW,328,2.2,7.2,32,0.00,,,0.00,VWS V14.01,2013-02-20 22:51:00,
2013-02-20 17:52:00,29.6,3.4,29.85,WNW,290,3.1,4.0,32,0.00,,,0.00,VWS V14.01,2013-02-20 22:52:00,
2013-02-20 17:53:00,29.6,3.4,29.85,NW,323,4.0,5.4,32,0.00,,,0.00,VWS V14.01,2013-02-20 22:53:00,
2013-02-20 17:54:00,29.6,3.4,29.85,NW,304,3.1,5.4,32,0.00,,,0.00,VWS V14.01,2013-02-20 22:54:00,
2013-02-20 17:55:00,29.6,3.4,29.85,WNW,300,5.4,5.4,32,0.00,,,0.00,VWS V14.01,2013-02-20 22:55:00,
2013-02-20 17:56:00,29.6,3.4,29.85,NW,309,2.7,5.4,32,0.00,,,0.00,VWS V14.01,2013-02-20 22:56:00,
2013-02-20 17:57:00,29.4,3.2,29.85,NW,315,4.0,5.4,32,0.00,,,0.00,VWS V14.01,2013-02-20 22:57:00,
2013-02-20 17:58:00,29.4,3.2,29.85,NW,318,10.1,10.1,32,0.00,,,0.00,VWS V14.01,2013-02-20 22:58:00,
2013-02-20 17:59:00,29.4,3.2,29.85,NNW,339,2.7,10.1,32,0.00,,,0.00,VWS V14.01,2013-02-20 22:59:00,
2013-02-20 18:00:00,29.4,3.2,29.85,WNW,287,6.3,8.1,32,0.00,,,0.00,VWS V14.01,2013-02-20 23:00:00,
2013-02-20 18:01:00,29.4,3.2,29.85,NNW,340,5.8,7.2,32,0.00,,,0.00,VWS V14.01,2013-02-20 23:01:00,
2013-02-20 18:02:00,29.4,3.2,29.85,WNW,282,8.1,8.3,32,0.00,,,0.00,VWS V14.01,2013-02-20 23:02:00,
2013-02-20 18:03:00,29.4,3.2,29.85,NW,321,8.3,8.3,32,0.00,,,0.00,VWS V14.01,2013-02-20 23:03:00,
2013-02-20 18:04:00,29.4,3.2,29.85,WNW,298,6.3,8.3,32,0.00,,,0.00,VWS V14.01,2013-02-20 23:04:00,
2013-02-20 18:05:00,29.4,3.2,29.85,WNW,302,3.1,6.3,32,0.00,,,0.00,VWS V14.01,2013-02-20 23:05:00,
2013-02-20 18:06:00,29.4,3.2,29.85,WSW,244,6.3,6.3,32,0.00,,,0.00,VWS V14.01,2013-02-20 23:06:00,
2013-02-20 18:07:00,29.4,3.2,29.85,WNW,296,6.3,6.3,32,0.00,,,0.00,VWS V14.01,2013-02-20 23:07:00,
2013-02-20 18:08:00,29.4,3.2,29.85,WNW,287,6.3,6.3,32,0.00,,,0.00,VWS V14.01,2013-02-20 23:08:00,
2013-02-20 18:09:00,29.4,3.2,29.85,NNW,329,7.6,7.6,32,0.00,,,0.00,VWS V14.01,2013-02-20 23:09:00,
2013-02-20 18:10:00,29.4,3.2,29.85,West,265,5.8,7.6,32,0.00,,,0.00,VWS V14.01,2013-02-20 23:10:00,
2013-02-20 18:11:00,29.4,3.2,29.85,West,273,12.3,12.3,32,0.00,,,0.00,VWS V14.01,2013-02-20 23:11:00,
2013-02-20 18:12:00,29.4,3.2,29.85,NNW,339,5.4,12.3,32,0.00,,,0.00,VWS V14.01,2013-02-20 23:12:00,
2013-02-20 18:13:00,29.4,3.2,29.85,NNW,329,6.3,6.3,32,0.00,,,0.00,VWS V14.01,2013-02-20 23:13:00,
2013-02-20 18:14:00,29.4,3.2,29.85,NW,306,5.8,8.7,32,0.00,,,0.00,VWS V14.01,2013-02-20 23:14:00,
2013-02-20 18:15:00,29.4,3.2,29.85,WSW,247,3.1,15.9,32,0.00,,,0.00,VWS V14.01,2013-02-20 23:15:00,
2013-02-20 18:16:00,29.4,3.2,29.85,WNW,300,15.0,15.0,32,0.00,,,0.00,VWS V14.01,2013-02-20 23:16:00,
2013-02-20 18:17:00,29.4,3.2,29.85,NW,313,6.3,15.0,32,0.00,,,0.00,VWS V14.01,2013-02-20 23:17:00,
2013-02-20 18:18:00,29.4,3.2,29.85,West,279,3.6,6.3,32,0.00,,,0.00,VWS V14.01,2013-02-20 23:18:00,
2013-02-20 18:19:00,29.4,3.2,29.85,SSE,164,3.6,5.4,32,0.00,,,0.00,VWS V14.01,2013-02-20 23:19:00,
2013-02-20 18:20:00,29.4,3.2,29.85,WNW,299,6.3,7.2,32,0.00,,,0.00,VWS V14.01,2013-02-20 23:20:00,
2013-02-20 18:21:00,29.4,3.2,29.88,WNW,299,5.8,8.7,32,0.00,,,0.00,VWS V14.01,2013-02-20 23:21:00,
2013-02-20 18:22:00,29.2,3.0,29.88,NW,318,4.0,8.7,32,0.00,,,0.00,VWS V14.01,2013-02-20 23:22:00,
2013-02-20 18:23:00,29.2,3.0,29.88,WNW,288,0.0,8.3,32,0.00,,,0.00,VWS V14.01,2013-02-20 23:23:00,
2013-02-20 18:24:00,29.2,3.0,29.88,NW,317,3.6,3.6,32,0.00,,,0.00,VWS V14.01,2013-02-20 23:24:00,
2013-02-20 18:25:00,29.2,3.0,29.88,NNW,346,5.4,5.4,32,0.00,,,0.00,VWS V14.01,2013-02-20 23:25:00,
2013-02-20 18:26:00,29.2,3.0,29.88,West,278,3.1,3.6,32,0.00,,,0.00,VWS V14.01,2013-02-20 23:26:00,
2013-02-20 18:27:00,29.2,5.0,29.88,West,273,4.9,6.3,35,0.00,,,0.00,VWS V14.01,2013-02-20 23:27:00,
2013-02-20 18:28:00,29.2,5.0,29.88,WSW,258,5.4,5.4,35,0.00,,,0.00,VWS V14.01,2013-02-20 23:28:00,
2013-02-20 18:29:00,29.2,5.0,29.88,South,175,4.0,10.1,35,0.00,,,0.00,VWS V14.01,2013-02-20 23:29:00,
2013-02-20 18:30:00,29.2,5.0,29.88,WNW,290,2.7,4.9,35,0.00,,,0.00,VWS V14.01,2013-02-20 23:30:00,
2013-02-20 18:31:00,29.0,4.8,29.88,WSW,249,7.6,7.6,35,0.00,,,0.00,VWS V14.01,2013-02-20 23:31:00,
2013-02-20 18:32:00,29.0,4.8,29.88,WNW,295,6.3,7.6,35,0.00,,,0.00,VWS V14.01,2013-02-20 23:32:00,
2013-02-20 18:33:00,29.0,4.8,29.88,WNW,293,5.8,8.3,35,0.00,,,0.00,VWS V14.01,2013-02-20 23:33:00,
2013-02-20 18:34:00,29.0,4.8,29.88,West,265,4.0,5.8,35,0.00,,,0.00,VWS V14.01,2013-02-20 23:34:00,
2013-02-20 18:35:00,29.0,4.8,29.88,NW,321,3.6,4.0,35,0.00,,,0.00,VWS V14.01,2013-02-20 23:35:00,
2013-02-20 18:36:00,29.0,4.8,29.88,West,268,5.8,6.3,35,0.00,,,0.00,VWS V14.01,2013-02-20 23:36:00,
2013-02-20 18:37:00,29.0,4.8,29.88,NW,324,2.7,6.3,35,0.00,,,0.00,VWS V14.01,2013-02-20 23:37:00,
2013-02-20 18:38:00,29.0,4.8,29.88,NW,314,5.4,5.8,35,0.00,,,0.00,VWS V14.01,2013-02-20 23:38:00,
2013-02-20 18:39:00,29.0,4.8,29.88,NW,326,2.7,5.4,35,0.00,,,0.00,VWS V14.01,2013-02-20 23:39:00,
2013-02-20 18:40:00,29.0,4.8,29.88,WNW,300,5.8,6.3,35,0.00,,,0.00,VWS V14.01,2013-02-20 23:40:00,
2013-02-20 18:41:00,29.0,4.8,29.88,West,276,4.0,4.0,35,0.00,,,0.00,VWS V14.01,2013-02-20 23:41:00,
2013-02-20 18:42:00,29.0,4.8,29.88,WSW,255,2.7,4.5,35,0.00,,,0.00,VWS V14.01,2013-02-20 23:42:00,
2013-02-20 18:43:00,29.0,4.8,29.88,NNW,339,4.0,5.4,35,0.00,,,0.00,VWS V14.01,2013-02-20 23:43:00,
2013-02-20 18:44:00,29.0,4.8,29.88,SW,220,4.0,5.4,35,0.00,,,0.00,VWS V14.01,2013-02-20 23:44:00,
2013-02-20 18:45:00,29.0,4.8,29.88,NW,304,3.1,4.0,35,0.00,,,0.00,VWS V14.01,2013-02-20 23:45:00,
2013-02-20 18:46:00,28.9,4.7,29.88,NNW,334,3.6,3.6,35,0.00,,,0.00,VWS V14.01,2013-02-20 23:46:00,
2013-02-20 18:47:00,28.9,4.7,29.88,NNW,341,3.6,3.6,35,0.00,,,0.00,VWS V14.01,2013-02-20 23:47:00,
2013-02-20 18:48:00,28.9,4.7,29.88,West,259,5.4,6.3,35,0.00,,,0.00,VWS V14.01,2013-02-20 23:48:00,
2013-02-20 18:49:00,28.9,4.7,29.88,WNW,287,4.0,5.4,35,0.00,,,0.00,VWS V14.01,2013-02-20 23:49:00,
2013-02-20 18:50:00,28.9,4.7,29.88,West,275,3.6,7.6,35,0.00,,,0.00,VWS V14.01,2013-02-20 23:50:00,
2013-02-20 18:51:00,28.9,4.7,29.88,WNW,293,4.0,6.3,35,0.00,,,0.00,VWS V14.01,2013-02-20 23:51:00,
2013-02-20 18:52:00,28.9,4.7,29.88,West,273,6.3,6.3,35,0.00,,,0.00,VWS V14.01,2013-02-20 23:52:00,
2013-02-20 18:53:00,28.9,4.7,29.88,SSE,165,2.7,6.3,35,0.00,,,0.00,VWS V14.01,2013-02-20 23:53:00,
2013-02-20 18:54:00,28.9,4.7,29.88,WNW,303,15.0,15.0,35,0.00,,,0.00,VWS V14.01,2013-02-20 23:54:00,
2013-02-20 18:55:00,28.9,4.7,29.88,West,273,4.0,15.0,35,0.00,,,0.00,VWS V14.01,2013-02-20 23:55:00,
2013-02-20 18:56:00,28.9,4.7,29.88,West,271,5.8,8.1,35,0.00,,,0.00,VWS V14.01,2013-02-20 23:56:00,
2013-02-20 18:57:00,28.9,4.7,29.88,West,271,5.8,8.1,35,0.00,,,0.00,VWS V14.01,2013-02-20 23:57:00,
2013-02-20 18:58:00,28.9,4.7,29.88,North,7,8.3,11.0,35,0.00,,,0.00,VWS V14.01,2013-02-20 23:58:00,
2013-02-20 18:59:00,28.9,4.7,29.88,NW,315,10.5,10.5,35,0.00,,,0.00,VWS V14.01,2013-02-20 23:59:00,
2013-02-20 19:00:00,28.9,4.7,29.88,NW,323,8.1,10.5,35,0.00,,,0.00,VWS V14.01,2013-02-21 00:00:00,
2013-02-20 19:01:00,28.9,4.7,29.88,NW,309,8.1,10.5,35,0.00,,,0.00,VWS V14.01,2013-02-21 00:01:00,
2013-02-20 19:02:00,28.9,4.7,29.88,NNW,329,5.8,8.7,35,0.00,,,0.00,VWS V14.01,2013-02-21 00:02:00,
2013-02-20 19:03:00,29.0,4.8,29.88,North,353,4.0,7.6,35,0.00,,,0.00,VWS V14.01,2013-02-21 00:03:00,
2013-02-20 19:04:00,29.0,4.8,29.88,South,187,2.2,6.3,35,0.00,,,0.00,VWS V14.01,2013-02-21 00:04:00,
2013-02-20 19:05:00,29.0,4.8,29.88,WNW,288,5.8,5.8,35,0.00,,,0.00,VWS V14.01,2013-02-21 00:05:00,
2013-02-20 19:06:00,29.0,4.8,29.88,NW,306,2.7,5.8,35,0.00,,,0.00,VWS V14.01,2013-02-21 00:06:00,
2013-02-20 19:07:00,29.0,4.8,29.88,West,270,3.6,3.6,35,0.00,,,0.00,VWS V14.01,2013-02-21 00:07:00,
2013-02-20 19:08:00,28.9,4.7,29.88,WNW,297,4.0,4.9,35,0.00,,,0.00,VWS V14.01,2013-02-21 00:08:00,
2013-02-20 19:09:00,28.9,4.7,29.88,WNW,288,4.0,8.1,35,0.00,,,0.00,VWS V14.01,2013-02-21 00:09:00,
2013-02-20 19:10:00,28.9,4.7,29.88,WNW,285,3.1,5.8,35,0.00,,,0.00,VWS V14.01,2013-02-21 00:10:00,
2013-02-20 19:11:00,28.9,4.7,29.88,NNE,19,0.0,5.4,35,0.00,,,0.00,VWS V14.01,2013-02-21 00:11:00,
2013-02-20 19:12:00,28.9,4.7,29.88,WNW,294,5.8,5.8,35,0.00,,,0.00,VWS V14.01,2013-02-21 00:12:00,
2013-02-20 19:13:00,28.9,4.7,29.88,NNE,18,2.7,10.5,35,0.00,,,0.00,VWS V14.01,2013-02-21 00:13:00,
2013-02-20 19:14:00,28.9,4.7,29.88,NE,35,5.4,5.4,35,0.00,,,0.00,VWS V14.01,2013-02-21 00:14:00,
2013-02-20 19:15:00,28.9,4.7,29.88,NW,304,3.1,6.7,35,0.00,,,0.00,VWS V14.01,2013-02-21 00:15:00,
2013-02-20 19:16:00,28.9,4.7,29.88,NW,313,3.6,3.6,35,0.00,,,0.00,VWS V14.01,2013-02-21 00:16:00,
2013-02-20 19:17:00,28.9,4.7,29.88,WSW,254,4.9,9.6,35,0.00,,,0.00,VWS V14.01,2013-02-21 00:17:00,
2013-02-20 19:18:00,28.9,4.7,29.88,NNW,336,4.0,4.9,35,0.00,,,0.00,VWS V14.01,2013-02-21 00:18:00,
2013-02-20 19:19:00,28.9,4.7,29.88,West,271,7.6,8.1,35,0.00,,,0.00,VWS V14.01,2013-02-21 00:19:00,
2013-02-20 19:20:00,28.9,4.7,29.88,SW,235,2.7,7.6,35,0.00,,,0.00,VWS V14.01,2013-02-21 00:20:00,
2013-02-20 19:21:00,28.9,4.7,29.88,North,353,8.1,8.1,35,0.00,,,0.00,VWS V14.01,2013-02-21 00:21:00,
2013-02-20 19:22:00,28.9,4.7,29.88,NNE,23,5.4,8.1,35,0.00,,,0.00,VWS V14.01,2013-02-21 00:22:00,
2013-02-20 19:23:00,28.9,4.7,29.88,NNW,329,8.3,10.1,35,0.00,,,0.00,VWS V14.01,2013-02-21 00:23:00,
2013-02-20 19:24:00,28.9,4.7,29.88,NW,310,6.3,8.3,35,0.00,,,0.00,VWS V14.01,2013-02-21 00:24:00,
2013-02-20 19:25:00,28.9,4.7,29.88,NW,305,4.9,6.3,35,0.00,,,0.00,VWS V14.01,2013-02-21 00:25:00,
2013-02-20 19:26:00,28.9,4.7,29.88,WNW,296,5.8,6.3,35,0.00,,,0.00,VWS V14.01,2013-02-21 00:26:00,
2013-02-20 19:27:00,28.9,4.7,29.88,NW,307,5.4,5.8,35,0.00,,,0.00,VWS V14.01,2013-02-21 00:27:00,
2013-02-20 19:28:00,28.9,4.7,29.88,West,264,3.6,7.6,35,0.00,,,0.00,VWS V14.01,2013-02-21 00:28:00,
2013-02-20 19:29:00,28.9,4.7,29.88,West,268,7.6,8.7,35,0.00,,,0.00,VWS V14.01,2013-02-21 00:29:00,
2013-02-20 19:30:00,28.9,4.7,29.88,West,270,7.2,7.6,35,0.00,,,0.00,VWS V14.01,2013-02-21 00:30:00,
2013-02-20 19:31:00,28.9,4.7,29.88,West,277,5.8,7.2,35,0.00,,,0.00,VWS V14.01,2013-02-21 00:31:00,
2013-02-20 19:32:00,28.9,4.7,29.88,West,259,4.9,5.8,35,0.00,,,0.00,VWS V14.01,2013-02-21 00:32:00,
2013-02-20 19:33:00,28.9,4.7,29.88,North,0,5.4,7.2,35,0.00,,,0.00,VWS V14.01,2013-02-21 00:33:00,
2013-02-20 19:34:00,28.9,4.7,29.88,West,267,3.6,5.4,35,0.00,,,0.00,VWS V14.01,2013-02-21 00:34:00,
2013-02-20 19:35:00,28.9,4.7,29.88,WNW,290,6.3,7.6,35,0.00,,,0.00,VWS V14.01,2013-02-21 00:35:00,
2013-02-20 19:36:00,28.9,4.7,29.88,WNW,299,0.0,6.3,35,0.00,,,0.00,VWS V14.01,2013-02-21 00:36:00,
2013-02-20 19:37:00,28.9,4.7,29.88,NW,317,0.0,0.0,35,0.00,,,0.00,VWS V14.01,2013-02-21 00:37:00,
2013-02-20 19:38:00,28.9,4.7,29.88,WNW,291,4.0,5.8,35,0.00,,,0.00,VWS V14.01,2013-02-21 00:38:00,
2013-02-20 19:39:00,28.7,4.5,29.88,WNW,291,3.6,4.0,35,0.00,,,0.00,VWS V14.01,2013-02-21 00:39:00,
2013-02-20 19:40:00,28.7,4.5,29.88,North,353,4.9,6.3,35,0.00,,,0.00,VWS V14.01,2013-02-21 00:40:00,
2013-02-20 19:41:00,28.7,4.5,29.88,SW,220,5.4,6.7,35,0.00,,,0.00,VWS V14.01,2013-02-21 00:41:00,
2013-02-20 19:42:00,28.7,4.5,29.88,WNW,297,3.1,5.8,35,0.00,,,0.00,VWS V14.01,2013-02-21 00:42:00,
2013-02-20 19:43:00,28.7,4.5,29.88,WNW,302,6.7,9.6,35,0.00,,,0.00,VWS V14.01,2013-02-21 00:43:00,
2013-02-20 19:44:00,28.7,4.5,29.88,NW,312,8.3,8.3,35,0.00,,,0.00,VWS V14.01,2013-02-21 00:44:00,
2013-02-20 19:45:00,28.7,4.5,29.88,West,277,5.8,12.3,35,0.00,,,0.00,VWS V14.01,2013-02-21 00:45:00,
2013-02-20 19:46:00,28.7,4.5,29.88,West,261,8.1,8.1,35,0.00,,,0.00,VWS V14.01,2013-02-21 00:46:00,
2013-02-20 19:47:00,28.7,4.5,29.88,NW,315,2.2,8.1,35,0.00,,,0.00,VWS V14.01,2013-02-21 00:47:00,
2013-02-20 19:48:00,28.7,4.5,29.88,WNW,293,7.2,7.2,35,0.00,,,0.00,VWS V14.01,2013-02-21 00:48:00,
2013-02-20 19:49:00,28.7,4.5,29.88,WNW,288,5.4,7.6,35,0.00,,,0.00,VWS V14.01,2013-02-21 00:49:00,
2013-02-20 19:50:00,28.7,4.5,29.88,NW,323,8.7,8.7,35,0.00,,,0.00,VWS V14.01,2013-02-21 00:50:00,
2013-02-20 19:51:00,28.7,4.5,29.88,NNW,332,6.3,8.7,35,0.00,,,0.00,VWS V14.01,2013-02-21 00:51:00,
2013-02-20 19:52:00,28.7,4.5,29.88,NNW,327,6.3,11.0,35,0.00,,,0.00,VWS V14.01,2013-02-21 00:52:00,
2013-02-20 19:53:00,28.7,4.5,29.88,NW,308,8.1,12.3,35,0.00,,,0.00,VWS V14.01,2013-02-21 00:53:00,
2013-02-20 19:54:00,28.7,4.5,29.88,NNW,345,5.4,12.8,35,0.00,,,0.00,VWS V14.01,2013-02-21 00:54:00,
2013-02-20 19:55:00,28.7,4.5,29.88,NNW,343,5.4,10.1,35,0.00,,,0.00,VWS V14.01,2013-02-21 00:55:00,
2013-02-20 19:56:00,28.7,4.5,29.88,West,281,7.6,7.6,35,0.00,,,0.00,VWS V14.01,2013-02-21 00:56:00,
2013-02-20 19:57:00,28.7,4.5,29.88,NNW,332,5.8,8.1,35,0.00,,,0.00,VWS V14.01,2013-02-21 00:57:00,
2013-02-20 19:58:00,28.7,4.5,29.88,WNW,288,5.8,14.5,35,0.00,,,0.00,VWS V14.01,2013-02-21 00:58:00,
2013-02-20 19:59:00,28.7,4.5,29.88,North,353,7.6,7.6,35,0.00,,,0.00,VWS V14.01,2013-02-21 00:59:00,
2013-02-20 20:00:00,28.7,4.5,29.88,WSW,257,5.4,7.6,35,0.00,,,0.00,VWS V14.01,2013-02-21 01:00:00,
2013-02-20 20:01:00,28.7,4.5,29.88,West,264,6.3,6.3,35,0.00,,,0.00,VWS V14.01,2013-02-21 01:01:00,
2013-02-20 20:02:00,28.7,4.5,29.88,NNW,332,4.9,6.3,35,0.00,,,0.00,VWS V14.01,2013-02-21 01:02:00,
2013-02-20 20:03:00,28.7,4.5,29.88,NW,311,4.9,6.3,35,0.00,,,0.00,VWS V14.01,2013-02-21 01:03:00,
2013-02-20 20:04:00,28.5,4.3,29.88,West,261,5.4,8.7,35,0.00,,,0.00,VWS V14.01,2013-02-21 01:04:00,
2013-02-20 20:05:00,28.5,4.3,29.88,WNW,291,3.6,6.3,35,0.00,,,0.00,VWS V14.01,2013-02-21 01:05:00,
2013-02-20 20:06:00,28.5,4.3,29.88,NW,321,5.4,6.3,35,0.00,,,0.00,VWS V14.01,2013-02-21 01:06:00,
2013-02-20 20:07:00,28.5,4.3,29.88,SW,233,6.3,10.5,35,0.00,,,0.00,VWS V14.01,2013-02-21 01:07:00,
2013-02-20 20:08:00,28.5,4.3,29.88,NW,322,4.9,10.5,35,0.00,,,0.00,VWS V14.01,2013-02-21 01:08:00,
2013-02-20 20:09:00,28.5,4.3,29.88,NW,309,4.9,8.1,35,0.00,,,0.00,VWS V14.01,2013-02-21 01:09:00,
2013-02-20 20:10:00,28.5,4.3,29.88,West,267,5.4,5.4,35,0.00,,,0.00,VWS V14.01,2013-02-21 01:10:00,
2013-02-20 20:11:00,28.5,4.3,29.88,West,274,4.0,7.6,35,0.00,,,0.00,VWS V14.01,2013-02-21 01:11:00,
2013-02-20 20:12:00,28.5,4.3,29.88,West,269,6.3,6.3,35,0.00,,,0.00,VWS V14.01,2013-02-21 01:12:00,
2013-02-20 20:13:00,28.5,4.3,29.88,SSW,194,3.6,6.3,35,0.00,,,0.00,VWS V14.01,2013-02-21 01:13:00,
2013-02-20 20:14:00,28.5,4.3,29.88,North,0,11.0,11.0,35,0.00,,,0.00,VWS V14.01,2013-02-21 01:14:00,
2013-02-20 20:15:00,28.5,4.3,29.88,NNW,327,5.8,11.0,35,0.00,,,0.00,VWS V14.01,2013-02-21 01:15:00,
2013-02-20 20:16:00,28.5,4.3,29.88,NNW,345,7.6,7.6,35,0.00,,,0.00,VWS V14.01,2013-02-21 01:16:00,
2013-02-20 20:17:00,28.5,4.3,29.88,WNW,303,3.1,5.8,35,0.00,,,0.00,VWS V14.01,2013-02-21 01:17:00,
2013-02-20 20:18:00,28.5,4.3,29.88,NNW,328,9.6,9.6,35,0.00,,,0.00,VWS V14.01,2013-02-21 01:18:00,
2013-02-20 20:19:00,28.5,4.3,29.88,NNW,328,5.4,9.6,35,0.00,,,0.00,VWS V14.01,2013-02-21 01:19:00,
2013-02-20 20:20:00,28.5,4.3,29.88,WNW,302,6.3,6.3,35,0.00,,,0.00,VWS V14.01,2013-02-21 01:20:00,
2013-02-20 20:21:00,28.5,4.3,29.88,NW,313,3.1,7.2,35,0.00,,,0.00,VWS V14.01,2013-02-21 01:21:00,
2013-02-20 20:22:00,28.5,4.3,29.88,West,279,6.3,6.3,35,0.00,,,0.00,VWS V14.01,2013-02-21 01:22:00,
2013-02-20 20:23:00,28.5,4.3,29.88,West,271,6.3,8.7,35,0.00,,,0.00,VWS V14.01,2013-02-21 01:23:00,
2013-02-20 20:24:00,28.5,4.3,29.88,North,0,5.4,8.1,35,0.00,,,0.00,VWS V14.01,2013-02-21 01:24:00,
2013-02-20 20:25:00,28.5,4.3,29.88,NW,325,8.7,8.7,35,0.00,,,0.00,VWS V14.01,2013-02-21 01:25:00,
2013-02-20 20:26:00,28.5,4.3,29.88,West,268,4.5,8.7,35,0.00,,,0.00,VWS V14.01,2013-02-21 01:26:00,
2013-02-20 20:27:00,28.5,4.3,29.88,NW,320,5.4,5.4,35,0.00,,,0.00,VWS V14.01,2013-02-21 01:27:00,
2013-02-20 20:28:00,28.5,4.3,29.88,NW,320,5.4,5.4,35,0.00,,,0.00,VWS V14.01,2013-02-21 01:28:00,
2013-02-20 20:29:00,28.5,4.3,29.88,NW,320,5.4,5.4,35,0.00,,,0.00,VWS V14.01,2013-02-21 01:29:00,
2013-02-20 20:30:00,28.5,4.3,29.88,NW,320,5.4,5.4,35,0.00,,,0.00,VWS V14.01,2013-02-21 01:30:00,
2013-02-20 20:31:00,28.5,4.3,29.88,NNW,345,4.0,5.4,35,0.00,,,0.00,VWS V14.01,2013-02-21 01:31:00,
2013-02-20 20:32:00,28.5,4.3,29.88,NNW,332,6.3,6.3,35,0.00,,,0.00,VWS V14.01,2013-02-21 01:32:00,
2013-02-20 20:33:00,28.5,4.3,29.88,North,353,5.4,6.3,35,0.00,,,0.00,VWS V14.01,2013-02-21 01:33:00,
2013-02-20 20:34:00,28.5,4.3,29.88,WNW,286,5.4,8.1,35,0.00,,,0.00,VWS V14.01,2013-02-21 01:34:00,
2013-02-20 20:35:00,28.5,4.3,29.88,West,280,5.8,5.8,35,0.00,,,0.00,VWS V14.01,2013-02-21 01:35:00,
2013-02-20 20:36:00,28.5,4.3,29.88,WNW,303,6.7,6.7,35,0.00,,,0.00,VWS V14.01,2013-02-21 01:36:00,
2013-02-20 20:37:00,28.5,4.3,29.88,West,273,7.6,7.6,35,0.00,,,0.00,VWS V14.01,2013-02-21 01:37:00,
2013-02-20 20:38:00,28.5,4.3,29.88,West,259,6.3,8.7,35,0.00,,,0.00,VWS V14.01,2013-02-21 01:38:00,
2013-02-20 20:39:00,28.5,4.3,29.88,WNW,294,6.7,6.7,35,0.00,,,0.00,VWS V14.01,2013-02-21 01:39:00,
2013-02-20 20:40:00,28.5,4.3,29.88,WNW,293,5.8,6.7,35,0.00,,,0.00,VWS V14.01,2013-02-21 01:40:00,
2013-02-20 20:41:00,28.5,4.3,29.88,NNW,343,3.6,5.8,35,0.00,,,0.00,VWS V14.01,2013-02-21 01:41:00,
2013-02-20 20:42:00,28.3,4.2,29.88,NW,310,8.1,8.1,35,0.00,,,0.00,VWS V14.01,2013-02-21 01:42:00,
2013-02-20 20:43:00,28.3,4.2,29.88,NW,310,8.1,8.1,35,0.00,,,0.00,VWS V14.01,2013-02-21 01:43:00,
2013-02-20 20:44:00,28.3,4.2,29.88,NW,317,5.8,8.1,35,0.00,,,0.00,VWS V14.01,2013-02-21 01:44:00,
2013-02-20 20:45:00,28.3,4.2,29.88,NE,54,3.6,8.1,35,0.00,,,0.00,VWS V14.01,2013-02-21 01:45:00,
2013-02-20 20:46:00,28.3,4.2,29.88,NW,320,7.6,11.0,35,0.00,,,0.00,VWS V14.01,2013-02-21 01:46:00,
2013-02-20 20:47:00,28.3,4.2,29.88,WNW,288,4.0,8.7,35,0.00,,,0.00,VWS V14.01,2013-02-21 01:47:00,
2013-02-20 20:48:00,28.3,4.2,29.88,North,0,5.4,8.7,35,0.00,,,0.00,VWS V14.01,2013-02-21 01:48:00,
2013-02-20 20:49:00,28.3,4.2,29.88,NNW,334,4.0,5.4,35,0.00,,,0.00,VWS V14.01,2013-02-21 01:49:00,
2013-02-20 20:50:00,28.1,4.0,29.88,WNW,291,5.8,7.6,35,0.00,,,0.00,VWS V14.01,2013-02-21 01:50:00,
2013-02-20 20:51:00,28.1,4.0,29.88,West,275,5.4,15.4,35,0.00,,,0.00,VWS V14.01,2013-02-21 01:51:00,
2013-02-20 20:52:00,28.1,4.0,29.88,NNW,342,10.5,10.5,35,0.00,,,0.00,VWS V14.01,2013-02-21 01:52:00,
2013-02-20 20:53:00,28.3,4.2,29.88,West,267,7.2,10.5,35,0.00,,,0.00,VWS V14.01,2013-02-21 01:53:00,
2013-02-20 20:54:00,28.3,4.2,29.88,NW,316,6.3,7.2,35,0.00,,,0.00,VWS V14.01,2013-02-21 01:54:00,
2013-02-20 20:55:00,28.3,4.2,29.88,NNW,327,5.4,7.2,35,0.00,,,0.00,VWS V14.01,2013-02-21 01:55:00,
2013-02-20 20:56:00,28.1,4.0,29.88,NW,322,5.8,5.8,35,0.00,,,0.00,VWS V14.01,2013-02-21 01:56:00,
2013-02-20 20:57:00,28.1,4.0,29.88,NW,306,4.0,4.0,35,0.00,,,0.00,VWS V14.01,2013-02-21 01:57:00,
2013-02-20 20:58:00,28.1,4.0,29.88,North,0,4.0,4.0,35,0.00,,,0.00,VWS V14.01,2013-02-21 01:58:00,
2013-02-20 20:59:00,28.1,4.0,29.88,North,0,4.9,6.7,35,0.00,,,0.00,VWS V14.01,2013-02-21 01:59:00,
2013-02-20 21:00:00,28.1,4.0,29.88,WSW,248,3.6,4.9,35,0.00,,,0.00,VWS V14.01,2013-02-21 02:00:00,
2013-02-20 21:01:00,28.1,4.0,29.88,NW,314,5.8,5.8,35,0.00,,,0.00,VWS V14.01,2013-02-21 02:01:00,
2013-02-20 21:02:00,28.1,4.0,29.88,NNW,345,5.4,5.4,35,0.00,,,0.00,VWS V14.01,2013-02-21 02:02:00,
2013-02-20 21:03:00,28.0,3.9,29.88,NNW,346,7.2,7.2,35,0.00,,,0.00,VWS V14.01,2013-02-21 02:03:00,
2013-02-20 21:04:00,28.0,3.9,29.88,West,274,6.7,10.5,35,0.00,,,0.00,VWS V14.01,2013-02-21 02:04:00,
2013-02-20 21:05:00,28.0,3.9,29.88,North,357,5.4,8.7,35,0.00,,,0.00,VWS V14.01,2013-02-21 02:05:00,
2013-02-20 21:06:00,28.0,3.9,29.88,NNW,339,6.3,6.3,35,0.00,,,0.00,VWS V14.01,2013-02-21 02:06:00,
2013-02-20 21:07:00,28.0,3.9,29.88,NW,317,5.8,8.7,35,0.00,,,0.00,VWS V14.01,2013-02-21 02:07:00,
2013-02-20 21:08:00,28.0,3.9,29.88,NW,317,5.8,8.7,35,0.00,,,0.00,VWS V14.01,2013-02-21 02:08:00,
2013-02-20 21:09:00,28.0,3.9,29.88,West,275,6.3,7.6,35,0.00,,,0.00,VWS V14.01,2013-02-21 02:09:00,
2013-02-20 21:10:00,28.0,3.9,29.88,North,0,5.8,6.3,35,0.00,,,0.00,VWS V14.01,2013-02-21 02:10:00,
2013-02-20 21:11:00,28.0,3.9,29.88,NW,318,10.5,10.5,35,0.00,,,0.00,VWS V14.01,2013-02-21 02:11:00,
2013-02-20 21:12:00,28.0,3.9,29.88,West,278,3.1,7.6,35,0.00,,,0.00,VWS V14.01,2013-02-21 02:12:00,
2013-02-20 21:13:00,28.0,3.9,29.88,NNW,336,5.4,7.6,35,0.00,,,0.00,VWS V14.01,2013-02-21 02:13:00,
2013-02-20 21:14:00,28.0,3.9,29.88,WNW,295,9.6,9.6,35,0.00,,,0.00,VWS V14.01,2013-02-21 02:14:00,
2013-02-20 21:15:00,28.0,3.9,29.88,NNW,342,5.4,9.6,35,0.00,,,0.00,VWS V14.01,2013-02-21 02:15:00,
2013-02-20 21:16:00,28.0,3.9,29.88,NNW,333,6.3,8.1,35,0.00,,,0.00,VWS V14.01,2013-02-21 02:16:00,
2013-02-20 21:17:00,28.0,3.9,29.88,WSW,239,4.0,8.7,35,0.00,,,0.00,VWS V14.01,2013-02-21 02:17:00,
2013-02-20 21:18:00,28.0,3.9,29.88,NNW,328,3.1,5.4,35,0.00,,,0.00,VWS V14.01,2013-02-21 02:18:00,
2013-02-20 21:19:00,28.0,3.9,29.88,NW,307,3.6,8.1,35,0.00,,,0.00,VWS V14.01,2013-02-21 02:19:00,
2013-02-20 21:20:00,28.0,3.9,29.88,SW,218,4.9,8.7,35,0.00,,,0.00,VWS V14.01,2013-02-21 02:20:00,
2013-02-20 21:21:00,28.0,3.9,29.88,NNE,12,3.1,5.4,35,0.00,,,0.00,VWS V14.01,2013-02-21 02:21:00,
2013-02-20 21:22:00,28.0,3.9,29.88,NNW,332,10.1,13.2,35,0.00,,,0.00,VWS V14.01,2013-02-21 02:22:00,
2013-02-20 21:23:00,28.0,3.9,29.88,North,350,5.8,10.1,35,0.00,,,0.00,VWS V14.01,2013-02-21 02:23:00,
2013-02-20 21:24:00,28.0,3.9,29.88,West,278,3.1,7.6,35,0.00,,,0.00,VWS V14.01,2013-02-21 02:24:00,
2013-02-20 21:25:00,28.0,3.9,29.88,NNW,335,4.9,5.8,35,0.00,,,0.00,VWS V14.01,2013-02-21 02:25:00,
2013-02-20 21:26:00,28.0,3.9,29.88,WNW,294,5.4,7.6,35,0.00,,,0.00,VWS V14.01,2013-02-21 02:26:00,
2013-02-20 21:27:00,28.0,3.9,29.88,NE,42,2.2,5.8,35,0.00,,,0.00,VWS V14.01,2013-02-21 02:27:00,
2013-02-20 21:28:00,28.0,3.9,29.88,NNW,328,8.7,8.7,35,0.00,,,0.00,VWS V14.01,2013-02-21 02:28:00,
2013-02-20 21:29:00,28.0,3.9,29.88,NW,324,3.1,8.7,35,0.00,,,0.00,VWS V14.01,2013-02-21 02:29:00,
2013-02-20 21:30:00,28.0,3.9,29.88,WNW,294,3.6,5.8,35,0.00,,,0.00,VWS V14.01,2013-02-21 02:30:00,
2013-02-20 21:31:00,28.0,3.9,29.88,NNW,342,2.7,5.4,35,0.00,,,0.00,VWS V14.01,2013-02-21 02:31:00,
2013-02-20 21:32:00,28.0,3.9,29.88,WSW,250,4.9,4.9,35,0.00,,,0.00,VWS V14.01,2013-02-21 02:32:00,
2013-02-20 21:33:00,28.0,3.9,29.88,North,4,2.7,4.9,35,0.00,,,0.00,VWS V14.01,2013-02-21 02:33:00,
2013-02-20 21:34:00,28.0,3.9,29.88,WNW,285,4.9,4.9,35,0.00,,,0.00,VWS V14.01,2013-02-21 02:34:00,
2013-02-20 21:35:00,28.0,3.9,29.88,West,268,2.7,4.9,35,0.00,,,0.00,VWS V14.01,2013-02-21 02:35:00,
2013-02-20 21:36:00,27.8,3.7,29.91,SW,232,2.7,3.6,35,0.00,,,0.00,VWS V14.01,2013-02-21 02:36:00,
2013-02-20 21:37:00,27.8,3.7,29.91,NW,318,3.6,5.8,35,0.00,,,0.00,VWS V14.01,2013-02-21 02:37:00,
2013-02-20 21:38:00,27.8,3.7,29.91,WSW,257,3.6,6.3,35,0.00,,,0.00,VWS V14.01,2013-02-21 02:38:00,
2013-02-20 21:39:00,27.8,3.7,29.91,NNW,331,5.4,5.4,35,0.00,,,0.00,VWS V14.01,2013-02-21 02:39:00,
2013-02-20 21:40:00,27.8,3.7,29.91,WSW,245,0.0,5.4,35,0.00,,,0.00,VWS V14.01,2013-02-21 02:40:00,
2013-02-20 21:41:00,27.8,3.7,29.91,ENE,74,4.9,4.9,35,0.00,,,0.00,VWS V14.01,2013-02-21 02:41:00,
2013-02-20 21:42:00,27.6,4.2,29.91,NNW,341,3.6,5.8,36,0.00,,,0.00,VWS V14.01,2013-02-21 02:42:00,
2013-02-20 21:43:00,27.6,4.2,29.91,SW,215,8.3,8.3,36,0.00,,,0.00,VWS V14.01,2013-02-21 02:43:00,
2013-02-20 21:44:00,27.6,4.2,29.91,WSW,253,3.6,8.3,36,0.00,,,0.00,VWS V14.01,2013-02-21 02:44:00,
2013-02-20 21:45:00,27.6,4.2,29.91,NNW,338,6.3,6.3,36,0.00,,,0.00,VWS V14.01,2013-02-21 02:45:00,
2013-02-20 21:46:00,27.6,4.2,29.91,WNW,296,2.7,6.3,36,0.00,,,0.00,VWS V14.01,2013-02-21 02:46:00,
2013-02-20 21:47:00,27.6,4.2,29.91,WSW,257,2.7,7.6,36,0.00,,,0.00,VWS V14.01,2013-02-21 02:47:00,
2013-02-20 21:48:00,27.6,4.2,29.91,WNW,284,3.1,3.1,36,0.00,,,0.00,VWS V14.01,2013-02-21 02:48:00,
2013-02-20 21:49:00,27.6,4.2,29.91,North,349,2.7,4.9,36,0.00,,,0.00,VWS V14.01,2013-02-21 02:49:00,
2013-02-20 21:50:00,27.6,4.2,29.91,WNW,283,2.2,5.4,36,0.00,,,0.00,VWS V14.01,2013-02-21 02:50:00,
2013-02-20 21:51:00,27.6,4.2,29.91,WNW,301,2.7,3.1,36,0.00,,,0.00,VWS V14.01,2013-02-21 02:51:00,
2013-02-20 21:52:00,27.6,4.2,29.91,WNW,297,4.0,8.1,36,0.00,,,0.00,VWS V14.01,2013-02-21 02:52:00,
2013-02-20 21:53:00,27.6,4.2,29.91,NW,306,4.9,4.9,36,0.00,,,0.00,VWS V14.01,2013-02-21 02:53:00,
2013-02-20 21:54:00,27.6,4.2,29.91,SSW,209,3.6,5.4,36,0.00,,,0.00,VWS V14.01,2013-02-21 02:54:00,
2013-02-20 21:55:00,27.6,4.2,29.91,NW,316,8.1,8.1,36,0.00,,,0.00,VWS V14.01,2013-02-21 02:55:00,
2013-02-20 21:56:00,27.4,4.0,29.91,NW,313,3.1,8.1,36,0.00,,,0.00,VWS V14.01,2013-02-21 02:56:00,
2013-02-20 21:57:00,27.4,4.0,29.91,WNW,285,3.1,5.8,36,0.00,,,0.00,VWS V14.01,2013-02-21 02:57:00,
2013-02-20 21:58:00,27.4,4.0,29.91,East,85,7.6,7.6,36,0.00,,,0.00,VWS V14.01,2013-02-21 02:58:00,
2013-02-20 21:59:00,27.4,4.0,29.91,NW,311,5.8,7.6,36,0.00,,,0.00,VWS V14.01,2013-02-21 02:59:00,
2013-02-20 22:00:00,27.4,4.0,29.91,WSW,256,5.4,5.8,36,0.00,,,0.00,VWS V14.01,2013-02-21 03:00:00,
2013-02-20 22:01:00,27.4,4.0,29.91,NNW,328,4.0,5.4,36,0.00,,,0.00,VWS V14.01,2013-02-21 03:01:00,
2013-02-20 22:02:00,27.4,4.0,29.91,West,280,5.4,5.4,36,0.00,,,0.00,VWS V14.01,2013-02-21 03:02:00,
2013-02-20 22:03:00,27.2,3.8,29.91,West,272,3.1,3.1,36,0.00,,,0.00,VWS V14.01,2013-02-21 03:03:00,
2013-02-20 22:04:00,27.2,3.8,29.91,WNW,292,3.6,3.6,36,0.00,,,0.00,VWS V14.01,2013-02-21 03:04:00,
2013-02-20 22:05:00,27.2,3.8,29.91,NNW,327,7.6,7.6,36,0.00,,,0.00,VWS V14.01,2013-02-21 03:05:00,
2013-02-20 22:06:00,27.2,3.8,29.91,NW,309,4.0,7.6,36,0.00,,,0.00,VWS V14.01,2013-02-21 03:06:00,
2013-02-20 22:07:00,27.2,3.8,29.91,NW,319,3.6,4.0,36,0.00,,,0.00,VWS V14.01,2013-02-21 03:07:00,
2013-02-20 22:08:00,27.2,3.8,29.91,West,265,4.9,4.9,36,0.00,,,0.00,VWS V14.01,2013-02-21 03:08:00,
2013-02-20 22:09:00,27.2,3.8,29.91,WSW,257,2.2,4.9,36,0.00,,,0.00,VWS V14.01,2013-02-21 03:09:00,
2013-02-20 22:10:00,27.2,3.8,29.91,North,11,4.0,6.3,36,0.00,,,0.00,VWS V14.01,2013-02-21 03:10:00,
2013-02-20 22:11:00,27.1,3.7,29.91,West,275,4.0,4.9,36,0.00,,,0.00,VWS V14.01,2013-02-21 03:11:00,
2013-02-20 22:12:00,27.1,3.7,29.91,NW,306,2.7,4.0,36,0.00,,,0.00,VWS V14.01,2013-02-21 03:12:00,
2013-02-20 22:13:00,27.1,3.7,29.91,NW,320,0.0,0.0,36,0.00,,,0.00,VWS V14.01,2013-02-21 03:13:00,
2013-02-20 22:14:00,27.1,3.7,29.91,WNW,290,0.0,3.1,36,0.00,,,0.00,VWS V14.01,2013-02-21 03:14:00,
2013-02-20 22:15:00,27.1,3.7,29.91,West,262,3.6,5.4,36,0.00,,,0.00,VWS V14.01,2013-02-21 03:15:00,
2013-02-20 22:16:00,27.1,3.7,29.91,West,268,5.4,5.4,36,0.00,,,0.00,VWS V14.01,2013-02-21 03:16:00,
2013-02-20 22:17:00,27.1,3.7,29.91,West,269,4.0,5.4,36,0.00,,,0.00,VWS V14.01,2013-02-21 03:17:00,
2013-02-20 22:18:00,27.1,3.7,29.91,North,0,0.0,0.0,36,0.00,,,0.00,VWS V14.01,2013-02-21 03:18:00,
2013-02-20 22:19:00,27.1,3.7,29.91,SW,221,0.0,0.0,36,0.00,,,0.00,VWS V14.01,2013-02-21 03:19:00,
2013-02-20 22:20:00,27.1,3.7,29.91,NW,304,0.0,3.6,36,0.00,,,0.00,VWS V14.01,2013-02-21 03:20:00,
2013-02-20 22:21:00,27.1,3.7,29.91,West,260,4.0,4.0,36,0.00,,,0.00,VWS V14.01,2013-02-21 03:21:00,
2013-02-20 22:22:00,27.1,3.7,29.91,WNW,303,3.6,4.0,36,0.00,,,0.00,VWS V14.01,2013-02-21 03:22:00,
2013-02-20 22:23:00,27.1,3.7,29.91,SSE,147,3.1,4.9,36,0.00,,,0.00,VWS V14.01,2013-02-21 03:23:00,
2013-02-20 22:24:00,27.1,3.7,29.91,West,265,3.6,4.9,36,0.00,,,0.00,VWS V14.01,2013-02-21 03:24:00,
2013-02-20 22:25:00,27.1,3.7,29.91,NW,318,0.0,3.6,36,0.00,,,0.00,VWS V14.01,2013-02-21 03:25:00,
2013-02-20 22:26:00,27.1,3.7,29.91,WNW,299,0.0,0.0,36,0.00,,,0.00,VWS V14.01,2013-02-21 03:26:00,
2013-02-20 22:27:00,27.1,3.7,29.91,West,277,4.0,6.3,36,0.00,,,0.00,VWS V14.01,2013-02-21 03:27:00,
2013-02-20 22:28:00,26.9,3.5,29.91,NNW,327,3.6,4.9,36,0.00,,,0.00,VWS V14.01,2013-02-21 03:28:00,
2013-02-20 22:29:00,26.9,3.5,29.91,WNW,294,4.9,4.9,36,0.00,,,0.00,VWS V14.01,2013-02-21 03:29:00,
2013-02-20 22:30:00,26.9,3.5,29.91,WSW,251,3.6,5.8,36,0.00,,,0.00,VWS V14.01,2013-02-21 03:30:00,
2013-02-20 22:31:00,26.9,3.5,29.91,WNW,301,3.1,3.6,36,0.00,,,0.00,VWS V14.01,2013-02-21 03:31:00,
2013-02-20 22:32:00,26.9,3.5,29.91,West,280,5.8,5.8,36,0.00,,,0.00,VWS V14.01,2013-02-21 03:32:00,
2013-02-20 22:33:00,26.9,3.5,29.91,SW,216,2.7,3.1,36,0.00,,,0.00,VWS V14.01,2013-02-21 03:33:00,
2013-02-20 22:34:00,26.9,3.5,29.91,NNW,331,4.0,6.3,36,0.00,,,0.00,VWS V14.01,2013-02-21 03:34:00,
2013-02-20 22:35:00,26.9,3.5,29.91,WSW,250,3.1,4.0,36,0.00,,,0.00,VWS V14.01,2013-02-21 03:35:00,
2013-02-20 22:36:00,26.9,3.5,29.91,WNW,303,8.1,8.1,36,0.00,,,0.00,VWS V14.01,2013-02-21 03:36:00,
2013-02-20 22:37:00,26.9,3.5,29.91,West,280,2.7,8.1,36,0.00,,,0.00,VWS V14.01,2013-02-21 03:37:00,
2013-02-20 22:38:00,26.9,3.5,29.91,WNW,282,4.0,4.0,36,0.00,,,0.00,VWS V14.01,2013-02-21 03:38:00,
2013-02-20 22:39:00,26.9,3.5,29.91,WNW,288,2.7,4.0,36,0.00,,,0.00,VWS V14.01,2013-02-21 03:39:00,
2013-02-20 22:40:00,26.9,3.5,29.91,WNW,289,2.2,3.6,36,0.00,,,0.00,VWS V14.01,2013-02-21 03:40:00,
2013-02-20 22:41:00,26.7,3.3,29.91,NW,322,2.7,5.4,36,0.00,,,0.00,VWS V14.01,2013-02-21 03:41:00,
2013-02-20 22:42:00,26.7,3.3,29.91,North,4,3.1,4.0,36,0.00,,,0.00,VWS V14.01,2013-02-21 03:42:00,
2013-02-20 22:43:00,26.7,3.9,29.91,SSE,159,3.1,4.0,37,0.00,,,0.00,VWS V14.01,2013-02-21 03:43:00,
2013-02-20 22:44:00,26.7,3.9,29.91,WNW,293,3.6,4.0,37,0.00,,,0.00,VWS V14.01,2013-02-21 03:44:00,
2013-02-20 22:45:00,26.7,3.9,29.91,West,261,3.1,5.4,37,0.00,,,0.00,VWS V14.01,2013-02-21 03:45:00,
2013-02-20 22:46:00,26.7,3.9,29.91,South,185,0.0,3.6,37,0.00,,,0.00,VWS V14.01,2013-02-21 03:46:00,
2013-02-20 22:47:00,26.7,3.9,29.91,South,176,3.6,3.6,37,0.00,,,0.00,VWS V14.01,2013-02-21 03:47:00,
2013-02-20 22:48:00,26.5,3.8,29.91,SW,230,5.4,5.4,37,0.00,,,0.00,VWS V14.01,2013-02-21 03:48:00,
2013-02-20 22:49:00,26.5,3.8,29.91,SW,230,2.7,5.4,37,0.00,,,0.00,VWS V14.01,2013-02-21 03:49:00,
2013-02-20 22:50:00,26.5,3.8,29.91,WNW,299,4.9,4.9,37,0.00,,,0.00,VWS V14.01,2013-02-21 03:50:00,
2013-02-20 22:52:00,26.5,3.8,29.91,SW,228,0.0,0.0,37,0.00,,,0.00,VWS V14.01,2013-02-21 03:52:00,
2013-02-20 22:53:00,26.5,3.8,29.91,SW,236,0.0,4.9,37,0.00,,,0.00,VWS V14.01,2013-02-21 03:53:00,
2013-02-20 22:54:00,26.5,3.8,29.91,WNW,299,3.6,4.9,37,0.00,,,0.00,VWS V14.01,2013-02-21 03:54:00,
2013-02-20 22:55:00,26.5,3.8,29.91,NW,309,4.0,4.0,37,0.00,,,0.00,VWS V14.01,2013-02-21 03:55:00,
2013-02-20 22:56:00,26.3,3.6,29.91,NW,309,0.0,4.0,37,0.00,,,0.00,VWS V14.01,2013-02-21 03:56:00,
2013-02-20 22:57:00,26.3,3.6,29.91,NW,309,0.0,0.0,37,0.00,,,0.00,VWS V14.01,2013-02-21 03:57:00,
2013-02-20 22:58:00,26.3,3.6,29.91,NNW,336,0.0,3.1,37,0.00,,,0.00,VWS V14.01,2013-02-21 03:58:00,
2013-02-20 22:59:00,26.3,3.6,29.91,NW,315,3.1,3.1,37,0.00,,,0.00,VWS V14.01,2013-02-21 03:59:00,
2013-02-20 23:00:00,26.3,3.6,29.91,NNE,12,4.0,4.0,37,0.00,,,0.00,VWS V14.01,2013-02-21 04:00:00,
2013-02-20 23:01:00,26.3,3.6,29.91,WNW,302,3.6,4.0,37,0.00,,,0.00,VWS V14.01,2013-02-21 04:01:00,
2013-02-20 23:02:00,26.3,3.6,29.91,NNW,337,5.4,5.4,37,0.00,,,0.00,VWS V14.01,2013-02-21 04:02:00,
2013-02-20 23:03:00,26.3,3.6,29.91,NW,324,4.0,8.3,37,0.00,,,0.00,VWS V14.01,2013-02-21 04:03:00,
2013-02-20 23:04:00,26.3,3.6,29.91,West,264,4.0,4.0,37,0.00,,,0.00,VWS V14.01,2013-02-21 04:04:00,
2013-02-20 23:05:00,26.3,3.6,29.91,West,278,3.1,4.0,37,0.00,,,0.00,VWS V14.01,2013-02-21 04:05:00,
2013-02-20 23:06:00,26.3,3.6,29.91,West,265,5.4,5.4,37,0.00,,,0.00,VWS V14.01,2013-02-21 04:06:00,
2013-02-20 23:07:00,26.3,3.6,29.91,North,353,5.4,5.8,37,0.00,,,0.00,VWS V14.01,2013-02-21 04:07:00,
2013-02-20 23:08:00,26.3,3.6,29.91,WNW,292,3.1,6.3,37,0.00,,,0.00,VWS V14.01,2013-02-21 04:08:00,
2013-02-20 23:09:00,26.3,3.6,29.91,WNW,283,2.2,4.0,37,0.00,,,0.00,VWS V14.01,2013-02-21 04:09:00,
2013-02-20 23:10:00,26.3,3.6,29.91,WNW,285,3.6,3.6,37,0.00,,,0.00,VWS V14.01,2013-02-21 04:10:00,
2013-02-20 23:11:00,26.3,3.6,29.91,WNW,290,4.0,6.3,37,0.00,,,0.00,VWS V14.01,2013-02-21 04:11:00,
2013-02-20 23:12:00,26.3,3.6,29.91,WNW,300,3.1,4.0,37,0.00,,,0.00,VWS V14.01,2013-02-21 04:12:00,
2013-02-20 23:13:00,26.3,3.6,29.91,WNW,289,0.0,4.9,37,0.00,,,0.00,VWS V14.01,2013-02-21 04:13:00,
2013-02-20 23:14:00,26.3,3.6,29.91,NW,305,2.7,2.7,37,0.00,,,0.00,VWS V14.01,2013-02-21 04:14:00,
2013-02-20 23:15:00,26.3,3.6,29.91,NW,313,5.4,5.4,37,0.00,,,0.00,VWS V14.01,2013-02-21 04:15:00,
2013-02-20 23:16:00,26.3,3.6,29.91,South,190,4.5,5.4,37,0.00,,,0.00,VWS V14.01,2013-02-21 04:16:00,
2013-02-20 23:17:00,26.3,3.6,29.91,West,280,3.6,5.4,37,0.00,,,0.00,VWS V14.01,2013-02-21 04:17:00,
2013-02-20 23:18:00,26.3,3.6,29.91,NNW,336,3.6,4.0,37,0.00,,,0.00,VWS V14.01,2013-02-21 04:18:00,
2013-02-20 23:19:00,26.3,3.6,29.91,NW,312,4.9,5.8,37,0.00,,,0.00,VWS V14.01,2013-02-21 04:19:00,
2013-02-20 23:20:00,26.3,3.6,29.91,NNE,20,2.7,5.8,37,0.00,,,0.00,VWS V14.01,2013-02-21 04:20:00,
2013-02-20 23:21:00,26.3,3.6,29.91,West,276,5.4,6.3,37,0.00,,,0.00,VWS V14.01,2013-02-21 04:21:00,
2013-02-20 23:22:00,26.3,3.6,29.91,NW,322,3.6,5.4,37,0.00,,,0.00,VWS V14.01,2013-02-21 04:22:00,
2013-02-20 23:23:00,26.3,3.6,29.91,WNW,293,4.0,5.4,37,0.00,,,0.00,VWS V14.01,2013-02-21 04:23:00,
2013-02-20 23:24:00,26.3,3.6,29.91,North,3,2.7,4.0,37,0.00,,,0.00,VWS V14.01,2013-02-21 04:24:00,